<?xml version="1.0" encoding="UTF-8" standalone="no" ?>
<gpx xmlns="http://www.topografix.com/GPX/1/1" xmlns:xsi="http://www.w3.org/2001/XMLSchema-instance" xsi:schemaLocation="http://www.topografix.com/GPX/1/1 http://www.topografix.com/GPX/1/1/gpx.xsd" version="1.1" creator="VisuGPX - https://www.visugpx.com">
  <metadata>
    <name>Course à pied dans l'après-midi</name>
  </metadata>
  <trk>
    <name><![CDATA[Course à pied dans l'après-midi_1]]></name>
    <trkseg>
      <trkpt lat="48.2014" lon="5.9443">
        <ele>343.3</ele>
        <time>2024-02-20T14:54:07Z</time>
      </trkpt>
      <trkpt lat="48.20139" lon="5.9443">
        <ele>343.4</ele>
        <time>2024-02-20T14:54:08Z</time>
      </trkpt>
      <trkpt lat="48.20122" lon="5.94419">
        <ele>344.1</ele>
        <time>2024-02-20T14:54:22Z</time>
      </trkpt>
      <trkpt lat="48.20104" lon="5.94422">
        <ele>344.7</ele>
        <time>2024-02-20T14:54:31Z</time>
      </trkpt>
      <trkpt lat="48.20085" lon="5.94427">
        <ele>345.2</ele>
        <time>2024-02-20T14:54:40Z</time>
      </trkpt>
      <trkpt lat="48.20065" lon="5.94431">
        <ele>345.7</ele>
        <time>2024-02-20T14:54:49Z</time>
      </trkpt>
      <trkpt lat="48.20047" lon="5.94433">
        <ele>346.1</ele>
        <time>2024-02-20T14:54:57Z</time>
      </trkpt>
      <trkpt lat="48.20028" lon="5.94432">
        <ele>346.6</ele>
        <time>2024-02-20T14:55:05Z</time>
      </trkpt>
      <trkpt lat="48.2001" lon="5.94429">
        <ele>347.2</ele>
        <time>2024-02-20T14:55:14Z</time>
      </trkpt>
      <trkpt lat="48.19993" lon="5.94437">
        <ele>348.1</ele>
        <time>2024-02-20T14:55:25Z</time>
      </trkpt>
      <trkpt lat="48.19977" lon="5.94429">
        <ele>348.6</ele>
        <time>2024-02-20T14:55:35Z</time>
      </trkpt>
      <trkpt lat="48.1996" lon="5.94443">
        <ele>349.4</ele>
        <time>2024-02-20T14:55:44Z</time>
      </trkpt>
      <trkpt lat="48.19943" lon="5.94458">
        <ele>350.2</ele>
        <time>2024-02-20T14:55:53Z</time>
      </trkpt>
      <trkpt lat="48.19926" lon="5.94471">
        <ele>351.1</ele>
        <time>2024-02-20T14:56:03Z</time>
      </trkpt>
      <trkpt lat="48.19909" lon="5.94485">
        <ele>352</ele>
        <time>2024-02-20T14:56:12Z</time>
      </trkpt>
      <trkpt lat="48.19891" lon="5.94478">
        <ele>353.1</ele>
        <time>2024-02-20T14:56:19Z</time>
      </trkpt>
      <trkpt lat="48.19876" lon="5.9446">
        <ele>354.4</ele>
        <time>2024-02-20T14:56:26Z</time>
      </trkpt>
      <trkpt lat="48.19861" lon="5.94443">
        <ele>355.4</ele>
        <time>2024-02-20T14:56:33Z</time>
      </trkpt>
      <trkpt lat="48.19847" lon="5.94424">
        <ele>356.3</ele>
        <time>2024-02-20T14:56:40Z</time>
      </trkpt>
      <trkpt lat="48.1983" lon="5.94408">
        <ele>357.1</ele>
        <time>2024-02-20T14:56:48Z</time>
      </trkpt>
      <trkpt lat="48.19813" lon="5.94399">
        <ele>357.8</ele>
        <time>2024-02-20T14:56:56Z</time>
      </trkpt>
      <trkpt lat="48.19793" lon="5.94397">
        <ele>358.5</ele>
        <time>2024-02-20T14:57:03Z</time>
      </trkpt>
      <trkpt lat="48.19773" lon="5.94396">
        <ele>359.2</ele>
        <time>2024-02-20T14:57:11Z</time>
      </trkpt>
      <trkpt lat="48.19755" lon="5.94395">
        <ele>359.8</ele>
        <time>2024-02-20T14:57:19Z</time>
      </trkpt>
      <trkpt lat="48.19737" lon="5.94394">
        <ele>360.3</ele>
        <time>2024-02-20T14:57:27Z</time>
      </trkpt>
      <trkpt lat="48.19718" lon="5.94395">
        <ele>360.3</ele>
        <time>2024-02-20T14:57:34Z</time>
      </trkpt>
      <trkpt lat="48.19701" lon="5.9439">
        <ele>360.2</ele>
        <time>2024-02-20T14:57:41Z</time>
      </trkpt>
      <trkpt lat="48.19681" lon="5.94381">
        <ele>359.4</ele>
        <time>2024-02-20T14:57:49Z</time>
      </trkpt>
      <trkpt lat="48.19661" lon="5.94374">
        <ele>358.6</ele>
        <time>2024-02-20T14:57:57Z</time>
      </trkpt>
      <trkpt lat="48.19645" lon="5.9436">
        <ele>358.4</ele>
        <time>2024-02-20T14:58:05Z</time>
      </trkpt>
      <trkpt lat="48.1964" lon="5.94333">
        <ele>358.6</ele>
        <time>2024-02-20T14:58:13Z</time>
      </trkpt>
      <trkpt lat="48.19634" lon="5.94304">
        <ele>358.6</ele>
        <time>2024-02-20T14:58:21Z</time>
      </trkpt>
      <trkpt lat="48.19628" lon="5.94277">
        <ele>358.8</ele>
        <time>2024-02-20T14:58:29Z</time>
      </trkpt>
      <trkpt lat="48.1962" lon="5.94249">
        <ele>359.1</ele>
        <time>2024-02-20T14:58:38Z</time>
      </trkpt>
      <trkpt lat="48.19613" lon="5.94222">
        <ele>359.5</ele>
        <time>2024-02-20T14:58:47Z</time>
      </trkpt>
      <trkpt lat="48.19606" lon="5.94196">
        <ele>360</ele>
        <time>2024-02-20T14:58:57Z</time>
      </trkpt>
      <trkpt lat="48.19601" lon="5.94168">
        <ele>360.5</ele>
        <time>2024-02-20T14:59:06Z</time>
      </trkpt>
      <trkpt lat="48.19599" lon="5.94139">
        <ele>361.3</ele>
        <time>2024-02-20T14:59:13Z</time>
      </trkpt>
      <trkpt lat="48.19592" lon="5.94114">
        <ele>361.7</ele>
        <time>2024-02-20T14:59:20Z</time>
      </trkpt>
      <trkpt lat="48.1958" lon="5.94091">
        <ele>362</ele>
        <time>2024-02-20T14:59:29Z</time>
      </trkpt>
      <trkpt lat="48.1957" lon="5.94065">
        <ele>363</ele>
        <time>2024-02-20T14:59:38Z</time>
      </trkpt>
      <trkpt lat="48.19559" lon="5.94042">
        <ele>363.5</ele>
        <time>2024-02-20T14:59:46Z</time>
      </trkpt>
      <trkpt lat="48.19546" lon="5.9402">
        <ele>363.9</ele>
        <time>2024-02-20T14:59:52Z</time>
      </trkpt>
      <trkpt lat="48.19534" lon="5.94">
        <ele>364.2</ele>
        <time>2024-02-20T14:59:58Z</time>
      </trkpt>
      <trkpt lat="48.19522" lon="5.93976">
        <ele>364.7</ele>
        <time>2024-02-20T15:00:05Z</time>
      </trkpt>
      <trkpt lat="48.1951" lon="5.93952">
        <ele>365.2</ele>
        <time>2024-02-20T15:00:13Z</time>
      </trkpt>
      <trkpt lat="48.19498" lon="5.93928">
        <ele>365.8</ele>
        <time>2024-02-20T15:00:21Z</time>
      </trkpt>
      <trkpt lat="48.19486" lon="5.93908">
        <ele>366.4</ele>
        <time>2024-02-20T15:00:28Z</time>
      </trkpt>
      <trkpt lat="48.19478" lon="5.9388">
        <ele>367</ele>
        <time>2024-02-20T15:00:36Z</time>
      </trkpt>
      <trkpt lat="48.19465" lon="5.9386">
        <ele>367.5</ele>
        <time>2024-02-20T15:00:43Z</time>
      </trkpt>
      <trkpt lat="48.19454" lon="5.93838">
        <ele>368.2</ele>
        <time>2024-02-20T15:00:50Z</time>
      </trkpt>
      <trkpt lat="48.19443" lon="5.93815">
        <ele>369</ele>
        <time>2024-02-20T15:00:57Z</time>
      </trkpt>
      <trkpt lat="48.1943" lon="5.93794">
        <ele>369.8</ele>
        <time>2024-02-20T15:01:04Z</time>
      </trkpt>
      <trkpt lat="48.19416" lon="5.93776">
        <ele>370.6</ele>
        <time>2024-02-20T15:01:11Z</time>
      </trkpt>
      <trkpt lat="48.19404" lon="5.93754">
        <ele>371.4</ele>
        <time>2024-02-20T15:01:19Z</time>
      </trkpt>
      <trkpt lat="48.19392" lon="5.93733">
        <ele>372.1</ele>
        <time>2024-02-20T15:01:26Z</time>
      </trkpt>
      <trkpt lat="48.19379" lon="5.93711">
        <ele>372.8</ele>
        <time>2024-02-20T15:01:34Z</time>
      </trkpt>
      <trkpt lat="48.19366" lon="5.93689">
        <ele>373.6</ele>
        <time>2024-02-20T15:01:43Z</time>
      </trkpt>
      <trkpt lat="48.19352" lon="5.93669">
        <ele>374.4</ele>
        <time>2024-02-20T15:01:51Z</time>
      </trkpt>
      <trkpt lat="48.19342" lon="5.93648">
        <ele>375.1</ele>
        <time>2024-02-20T15:01:59Z</time>
      </trkpt>
      <trkpt lat="48.19329" lon="5.93626">
        <ele>375.8</ele>
        <time>2024-02-20T15:02:07Z</time>
      </trkpt>
      <trkpt lat="48.19316" lon="5.93604">
        <ele>376.3</ele>
        <time>2024-02-20T15:02:15Z</time>
      </trkpt>
      <trkpt lat="48.19303" lon="5.9358">
        <ele>376.6</ele>
        <time>2024-02-20T15:02:23Z</time>
      </trkpt>
      <trkpt lat="48.19291" lon="5.93556">
        <ele>377.1</ele>
        <time>2024-02-20T15:02:31Z</time>
      </trkpt>
      <trkpt lat="48.19287" lon="5.93528">
        <ele>378.1</ele>
        <time>2024-02-20T15:02:39Z</time>
      </trkpt>
      <trkpt lat="48.19299" lon="5.93504">
        <ele>376.8</ele>
        <time>2024-02-20T15:02:46Z</time>
      </trkpt>
      <trkpt lat="48.19312" lon="5.93485">
        <ele>375.4</ele>
        <time>2024-02-20T15:02:52Z</time>
      </trkpt>
      <trkpt lat="48.19328" lon="5.93466">
        <ele>373.4</ele>
        <time>2024-02-20T15:02:59Z</time>
      </trkpt>
      <trkpt lat="48.1934" lon="5.93447">
        <ele>371.6</ele>
        <time>2024-02-20T15:03:06Z</time>
      </trkpt>
      <trkpt lat="48.19357" lon="5.93431">
        <ele>369.8</ele>
        <time>2024-02-20T15:03:13Z</time>
      </trkpt>
      <trkpt lat="48.19374" lon="5.93422">
        <ele>367.5</ele>
        <time>2024-02-20T15:03:18Z</time>
      </trkpt>
      <trkpt lat="48.19388" lon="5.93412">
        <ele>365.5</ele>
        <time>2024-02-20T15:03:24Z</time>
      </trkpt>
      <trkpt lat="48.19406" lon="5.93412">
        <ele>363.3</ele>
        <time>2024-02-20T15:03:39Z</time>
      </trkpt>
      <trkpt lat="48.1941" lon="5.93408">
        <ele>362.8</ele>
        <time>2024-02-20T15:03:43Z</time>
      </trkpt>
      <trkpt lat="48.19426" lon="5.93394">
        <ele>360.9</ele>
        <time>2024-02-20T15:03:50Z</time>
      </trkpt>
      <trkpt lat="48.19443" lon="5.93381">
        <ele>359.5</ele>
        <time>2024-02-20T15:03:58Z</time>
      </trkpt>
      <trkpt lat="48.19461" lon="5.93371">
        <ele>359.3</ele>
        <time>2024-02-20T15:04:06Z</time>
      </trkpt>
      <trkpt lat="48.19475" lon="5.93351">
        <ele>359.6</ele>
        <time>2024-02-20T15:04:18Z</time>
      </trkpt>
      <trkpt lat="48.19489" lon="5.93333">
        <ele>360</ele>
        <time>2024-02-20T15:04:26Z</time>
      </trkpt>
      <trkpt lat="48.19506" lon="5.9332">
        <ele>360.2</ele>
        <time>2024-02-20T15:04:34Z</time>
      </trkpt>
      <trkpt lat="48.19518" lon="5.933">
        <ele>360.6</ele>
        <time>2024-02-20T15:04:42Z</time>
      </trkpt>
      <trkpt lat="48.1952" lon="5.93287">
        <ele>360.9</ele>
        <time>2024-02-20T15:04:46Z</time>
      </trkpt>
      <trkpt lat="48.19523" lon="5.93286">
        <ele>360.8</ele>
        <time>2024-02-20T15:04:48Z</time>
      </trkpt>
      <trkpt lat="48.1954" lon="5.93299">
        <ele>360.3</ele>
        <time>2024-02-20T15:04:55Z</time>
      </trkpt>
      <trkpt lat="48.19554" lon="5.93317">
        <ele>359.7</ele>
        <time>2024-02-20T15:05:02Z</time>
      </trkpt>
      <trkpt lat="48.19566" lon="5.93339">
        <ele>359.2</ele>
        <time>2024-02-20T15:05:09Z</time>
      </trkpt>
      <trkpt lat="48.19577" lon="5.93364">
        <ele>358.6</ele>
        <time>2024-02-20T15:05:16Z</time>
      </trkpt>
      <trkpt lat="48.19584" lon="5.93393">
        <ele>358</ele>
        <time>2024-02-20T15:05:23Z</time>
      </trkpt>
      <trkpt lat="48.19583" lon="5.93423">
        <ele>357.4</ele>
        <time>2024-02-20T15:05:30Z</time>
      </trkpt>
      <trkpt lat="48.19584" lon="5.9345">
        <ele>357</ele>
        <time>2024-02-20T15:05:37Z</time>
      </trkpt>
      <trkpt lat="48.19595" lon="5.93473">
        <ele>356.5</ele>
        <time>2024-02-20T15:05:44Z</time>
      </trkpt>
      <trkpt lat="48.19606" lon="5.93497">
        <ele>356</ele>
        <time>2024-02-20T15:05:51Z</time>
      </trkpt>
      <trkpt lat="48.19616" lon="5.93523">
        <ele>355.4</ele>
        <time>2024-02-20T15:05:58Z</time>
      </trkpt>
      <trkpt lat="48.19612" lon="5.9355">
        <ele>355.4</ele>
        <time>2024-02-20T15:06:05Z</time>
      </trkpt>
      <trkpt lat="48.19596" lon="5.93568">
        <ele>355.5</ele>
        <time>2024-02-20T15:06:11Z</time>
      </trkpt>
      <trkpt lat="48.1958" lon="5.93585">
        <ele>356.3</ele>
        <time>2024-02-20T15:06:18Z</time>
      </trkpt>
      <trkpt lat="48.19564" lon="5.93602">
        <ele>357.1</ele>
        <time>2024-02-20T15:06:25Z</time>
      </trkpt>
      <trkpt lat="48.19547" lon="5.9362">
        <ele>357.4</ele>
        <time>2024-02-20T15:06:32Z</time>
      </trkpt>
      <trkpt lat="48.19529" lon="5.93632">
        <ele>358.1</ele>
        <time>2024-02-20T15:06:40Z</time>
      </trkpt>
      <trkpt lat="48.1951" lon="5.93641">
        <ele>359.4</ele>
        <time>2024-02-20T15:06:48Z</time>
      </trkpt>
      <trkpt lat="48.19495" lon="5.93629">
        <ele>360.2</ele>
        <time>2024-02-20T15:06:54Z</time>
      </trkpt>
      <trkpt lat="48.19483" lon="5.93605">
        <ele>360.2</ele>
        <time>2024-02-20T15:07:01Z</time>
      </trkpt>
      <trkpt lat="48.19473" lon="5.93579">
        <ele>359.8</ele>
        <time>2024-02-20T15:07:08Z</time>
      </trkpt>
      <trkpt lat="48.19459" lon="5.93557">
        <ele>360.4</ele>
        <time>2024-02-20T15:07:15Z</time>
      </trkpt>
      <trkpt lat="48.19444" lon="5.93541">
        <ele>361.9</ele>
        <time>2024-02-20T15:07:21Z</time>
      </trkpt>
      <trkpt lat="48.19441" lon="5.93526">
        <ele>362</ele>
        <time>2024-02-20T15:07:26Z</time>
      </trkpt>
      <trkpt lat="48.1946" lon="5.93532">
        <ele>360</ele>
        <time>2024-02-20T15:07:32Z</time>
      </trkpt>
      <trkpt lat="48.1948" lon="5.93534">
        <ele>358.7</ele>
        <time>2024-02-20T15:07:38Z</time>
      </trkpt>
      <trkpt lat="48.19499" lon="5.93532">
        <ele>357.8</ele>
        <time>2024-02-20T15:07:44Z</time>
      </trkpt>
      <trkpt lat="48.19514" lon="5.93515">
        <ele>357.4</ele>
        <time>2024-02-20T15:07:50Z</time>
      </trkpt>
      <trkpt lat="48.19529" lon="5.93499">
        <ele>357.4</ele>
        <time>2024-02-20T15:07:56Z</time>
      </trkpt>
      <trkpt lat="48.19544" lon="5.93483">
        <ele>357.6</ele>
        <time>2024-02-20T15:08:02Z</time>
      </trkpt>
      <trkpt lat="48.19558" lon="5.93467">
        <ele>357.9</ele>
        <time>2024-02-20T15:08:08Z</time>
      </trkpt>
      <trkpt lat="48.19572" lon="5.93447">
        <ele>357.9</ele>
        <time>2024-02-20T15:08:15Z</time>
      </trkpt>
      <trkpt lat="48.19574" lon="5.93432">
        <ele>358.1</ele>
        <time>2024-02-20T15:08:19Z</time>
      </trkpt>
      <trkpt lat="48.19557" lon="5.93417">
        <ele>358.7</ele>
        <time>2024-02-20T15:08:26Z</time>
      </trkpt>
      <trkpt lat="48.19556" lon="5.93415">
        <ele>359</ele>
        <time>2024-02-20T15:08:27Z</time>
      </trkpt>
      <trkpt lat="48.19558" lon="5.93387">
        <ele>359</ele>
        <time>2024-02-20T15:08:35Z</time>
      </trkpt>
      <trkpt lat="48.19552" lon="5.93361">
        <ele>358.9</ele>
        <time>2024-02-20T15:08:42Z</time>
      </trkpt>
      <trkpt lat="48.1954" lon="5.93337">
        <ele>358.9</ele>
        <time>2024-02-20T15:08:50Z</time>
      </trkpt>
      <trkpt lat="48.19525" lon="5.93322">
        <ele>358.9</ele>
        <time>2024-02-20T15:08:57Z</time>
      </trkpt>
      <trkpt lat="48.19506" lon="5.9332">
        <ele>359</ele>
        <time>2024-02-20T15:09:05Z</time>
      </trkpt>
      <trkpt lat="48.1949" lon="5.93338">
        <ele>359</ele>
        <time>2024-02-20T15:09:13Z</time>
      </trkpt>
      <trkpt lat="48.19477" lon="5.93356">
        <ele>359.1</ele>
        <time>2024-02-20T15:09:20Z</time>
      </trkpt>
      <trkpt lat="48.19461" lon="5.93374">
        <ele>359.2</ele>
        <time>2024-02-20T15:09:27Z</time>
      </trkpt>
      <trkpt lat="48.19447" lon="5.93391">
        <ele>359.2</ele>
        <time>2024-02-20T15:09:33Z</time>
      </trkpt>
      <trkpt lat="48.19431" lon="5.93407">
        <ele>359.3</ele>
        <time>2024-02-20T15:09:41Z</time>
      </trkpt>
      <trkpt lat="48.1942" lon="5.93414">
        <ele>359.3</ele>
        <time>2024-02-20T15:09:50Z</time>
      </trkpt>
      <trkpt lat="48.19421" lon="5.93412">
        <ele>359.3</ele>
        <time>2024-02-20T15:09:52Z</time>
      </trkpt>
      <trkpt lat="48.19435" lon="5.93393">
        <ele>359.2</ele>
        <time>2024-02-20T15:10:09Z</time>
      </trkpt>
      <trkpt lat="48.19449" lon="5.93375">
        <ele>359.2</ele>
        <time>2024-02-20T15:10:21Z</time>
      </trkpt>
      <trkpt lat="48.19462" lon="5.93357">
        <ele>359.2</ele>
        <time>2024-02-20T15:10:33Z</time>
      </trkpt>
      <trkpt lat="48.19478" lon="5.93343">
        <ele>359.1</ele>
        <time>2024-02-20T15:10:42Z</time>
      </trkpt>
      <trkpt lat="48.19493" lon="5.93326">
        <ele>359</ele>
        <time>2024-02-20T15:10:50Z</time>
      </trkpt>
      <trkpt lat="48.19507" lon="5.93308">
        <ele>359</ele>
        <time>2024-02-20T15:10:59Z</time>
      </trkpt>
      <trkpt lat="48.19511" lon="5.93304">
        <ele>359</ele>
        <time>2024-02-20T15:11:02Z</time>
      </trkpt>
      <trkpt lat="48.19509" lon="5.93308">
        <ele>359</ele>
        <time>2024-02-20T15:11:05Z</time>
      </trkpt>
      <trkpt lat="48.19494" lon="5.93327">
        <ele>359</ele>
        <time>2024-02-20T15:11:12Z</time>
      </trkpt>
      <trkpt lat="48.19481" lon="5.93346">
        <ele>359.1</ele>
        <time>2024-02-20T15:11:18Z</time>
      </trkpt>
      <trkpt lat="48.19469" lon="5.9337">
        <ele>359.2</ele>
        <time>2024-02-20T15:11:25Z</time>
      </trkpt>
      <trkpt lat="48.19455" lon="5.93387">
        <ele>359.2</ele>
        <time>2024-02-20T15:11:33Z</time>
      </trkpt>
      <trkpt lat="48.19441" lon="5.93404">
        <ele>359.3</ele>
        <time>2024-02-20T15:11:42Z</time>
      </trkpt>
      <trkpt lat="48.19426" lon="5.93422">
        <ele>359.3</ele>
        <time>2024-02-20T15:11:49Z</time>
      </trkpt>
      <trkpt lat="48.19424" lon="5.93422">
        <ele>359.3</ele>
        <time>2024-02-20T15:11:53Z</time>
      </trkpt>
      <trkpt lat="48.19434" lon="5.93397">
        <ele>359.3</ele>
        <time>2024-02-20T15:12:05Z</time>
      </trkpt>
      <trkpt lat="48.19448" lon="5.93377">
        <ele>359.2</ele>
        <time>2024-02-20T15:12:16Z</time>
      </trkpt>
      <trkpt lat="48.19463" lon="5.9336">
        <ele>359.2</ele>
        <time>2024-02-20T15:12:24Z</time>
      </trkpt>
      <trkpt lat="48.19481" lon="5.93345">
        <ele>359.1</ele>
        <time>2024-02-20T15:12:30Z</time>
      </trkpt>
      <trkpt lat="48.19496" lon="5.93331">
        <ele>359</ele>
        <time>2024-02-20T15:12:37Z</time>
      </trkpt>
      <trkpt lat="48.1951" lon="5.93313">
        <ele>359</ele>
        <time>2024-02-20T15:12:47Z</time>
      </trkpt>
      <trkpt lat="48.19514" lon="5.93311">
        <ele>359</ele>
        <time>2024-02-20T15:12:51Z</time>
      </trkpt>
      <trkpt lat="48.19521" lon="5.93292">
        <ele>358.9</ele>
        <time>2024-02-20T15:12:58Z</time>
      </trkpt>
      <trkpt lat="48.19529" lon="5.93294">
        <ele>358.9</ele>
        <time>2024-02-20T15:13:00Z</time>
      </trkpt>
      <trkpt lat="48.19513" lon="5.93315">
        <ele>359</ele>
        <time>2024-02-20T15:13:53Z</time>
      </trkpt>
      <trkpt lat="48.19509" lon="5.9332">
        <ele>359</ele>
        <time>2024-02-20T15:13:58Z</time>
      </trkpt>
      <trkpt lat="48.19493" lon="5.93338">
        <ele>359</ele>
        <time>2024-02-20T15:14:03Z</time>
      </trkpt>
      <trkpt lat="48.19475" lon="5.93361">
        <ele>359.1</ele>
        <time>2024-02-20T15:14:07Z</time>
      </trkpt>
      <trkpt lat="48.19461" lon="5.93381">
        <ele>359.2</ele>
        <time>2024-02-20T15:14:10Z</time>
      </trkpt>
      <trkpt lat="48.19447" lon="5.93398">
        <ele>359.2</ele>
        <time>2024-02-20T15:14:13Z</time>
      </trkpt>
      <trkpt lat="48.19433" lon="5.93416">
        <ele>359.3</ele>
        <time>2024-02-20T15:14:18Z</time>
      </trkpt>
      <trkpt lat="48.19431" lon="5.93414">
        <ele>359.3</ele>
        <time>2024-02-20T15:14:22Z</time>
      </trkpt>
      <trkpt lat="48.19439" lon="5.93391">
        <ele>359.2</ele>
        <time>2024-02-20T15:14:32Z</time>
      </trkpt>
      <trkpt lat="48.19455" lon="5.93371">
        <ele>359.2</ele>
        <time>2024-02-20T15:14:37Z</time>
      </trkpt>
      <trkpt lat="48.19474" lon="5.93349">
        <ele>359.1</ele>
        <time>2024-02-20T15:14:41Z</time>
      </trkpt>
      <trkpt lat="48.19492" lon="5.93328">
        <ele>359</ele>
        <time>2024-02-20T15:14:45Z</time>
      </trkpt>
      <trkpt lat="48.19506" lon="5.9331">
        <ele>359</ele>
        <time>2024-02-20T15:14:49Z</time>
      </trkpt>
      <trkpt lat="48.19511" lon="5.93305">
        <ele>359</ele>
        <time>2024-02-20T15:14:51Z</time>
      </trkpt>
      <trkpt lat="48.19514" lon="5.93307">
        <ele>359</ele>
        <time>2024-02-20T15:14:55Z</time>
      </trkpt>
      <trkpt lat="48.19504" lon="5.9332">
        <ele>359</ele>
        <time>2024-02-20T15:15:04Z</time>
      </trkpt>
      <trkpt lat="48.19493" lon="5.93342">
        <ele>359</ele>
        <time>2024-02-20T15:15:17Z</time>
      </trkpt>
      <trkpt lat="48.19482" lon="5.93365">
        <ele>359.1</ele>
        <time>2024-02-20T15:15:27Z</time>
      </trkpt>
      <trkpt lat="48.19478" lon="5.93372">
        <ele>359.2</ele>
        <time>2024-02-20T15:15:30Z</time>
      </trkpt>
      <trkpt lat="48.19442" lon="5.93396">
        <ele>359.3</ele>
        <time>2024-02-20T15:17:38Z</time>
      </trkpt>
      <trkpt lat="48.19431" lon="5.93422">
        <ele>359.3</ele>
        <time>2024-02-20T15:17:46Z</time>
      </trkpt>
      <trkpt lat="48.19431" lon="5.93451">
        <ele>359.3</ele>
        <time>2024-02-20T15:17:52Z</time>
      </trkpt>
      <trkpt lat="48.19439" lon="5.93476">
        <ele>359.3</ele>
        <time>2024-02-20T15:17:58Z</time>
      </trkpt>
      <trkpt lat="48.19455" lon="5.93495">
        <ele>359.3</ele>
        <time>2024-02-20T15:18:05Z</time>
      </trkpt>
      <trkpt lat="48.19467" lon="5.93499">
        <ele>359.2</ele>
        <time>2024-02-20T15:18:10Z</time>
      </trkpt>
      <trkpt lat="48.19485" lon="5.93492">
        <ele>359.2</ele>
        <time>2024-02-20T15:18:15Z</time>
      </trkpt>
      <trkpt lat="48.19502" lon="5.93472">
        <ele>359.1</ele>
        <time>2024-02-20T15:18:20Z</time>
      </trkpt>
      <trkpt lat="48.19519" lon="5.93452">
        <ele>359.2</ele>
        <time>2024-02-20T15:18:25Z</time>
      </trkpt>
      <trkpt lat="48.19536" lon="5.93433">
        <ele>359.1</ele>
        <time>2024-02-20T15:18:30Z</time>
      </trkpt>
      <trkpt lat="48.19553" lon="5.93413">
        <ele>359</ele>
        <time>2024-02-20T15:18:35Z</time>
      </trkpt>
      <trkpt lat="48.19558" lon="5.93403">
        <ele>359</ele>
        <time>2024-02-20T15:18:37Z</time>
      </trkpt>
      <trkpt lat="48.1956" lon="5.93391">
        <ele>359</ele>
        <time>2024-02-20T15:18:39Z</time>
      </trkpt>
      <trkpt lat="48.19558" lon="5.93371">
        <ele>358.9</ele>
        <time>2024-02-20T15:18:42Z</time>
      </trkpt>
      <trkpt lat="48.19553" lon="5.93353">
        <ele>358.9</ele>
        <time>2024-02-20T15:18:45Z</time>
      </trkpt>
      <trkpt lat="48.19538" lon="5.93328">
        <ele>358.9</ele>
        <time>2024-02-20T15:18:50Z</time>
      </trkpt>
      <trkpt lat="48.19527" lon="5.9332">
        <ele>358.9</ele>
        <time>2024-02-20T15:18:53Z</time>
      </trkpt>
      <trkpt lat="48.19519" lon="5.93319">
        <ele>358.9</ele>
        <time>2024-02-20T15:18:55Z</time>
      </trkpt>
      <trkpt lat="48.19505" lon="5.93324">
        <ele>359</ele>
        <time>2024-02-20T15:18:58Z</time>
      </trkpt>
      <trkpt lat="48.19497" lon="5.93331">
        <ele>359</ele>
        <time>2024-02-20T15:19:00Z</time>
      </trkpt>
      <trkpt lat="48.19481" lon="5.93352">
        <ele>359.1</ele>
        <time>2024-02-20T15:19:05Z</time>
      </trkpt>
      <trkpt lat="48.19463" lon="5.93373">
        <ele>359.2</ele>
        <time>2024-02-20T15:19:10Z</time>
      </trkpt>
      <trkpt lat="48.19446" lon="5.93393">
        <ele>359.2</ele>
        <time>2024-02-20T15:19:15Z</time>
      </trkpt>
      <trkpt lat="48.19432" lon="5.93411">
        <ele>359.3</ele>
        <time>2024-02-20T15:19:19Z</time>
      </trkpt>
      <trkpt lat="48.1943" lon="5.93417">
        <ele>359.3</ele>
        <time>2024-02-20T15:19:20Z</time>
      </trkpt>
      <trkpt lat="48.19426" lon="5.9343">
        <ele>359.3</ele>
        <time>2024-02-20T15:19:22Z</time>
      </trkpt>
      <trkpt lat="48.19425" lon="5.93444">
        <ele>359.3</ele>
        <time>2024-02-20T15:19:24Z</time>
      </trkpt>
      <trkpt lat="48.19427" lon="5.93457">
        <ele>359.3</ele>
        <time>2024-02-20T15:19:26Z</time>
      </trkpt>
      <trkpt lat="48.19432" lon="5.93468">
        <ele>359.3</ele>
        <time>2024-02-20T15:19:28Z</time>
      </trkpt>
      <trkpt lat="48.19444" lon="5.93489">
        <ele>359.3</ele>
        <time>2024-02-20T15:19:32Z</time>
      </trkpt>
      <trkpt lat="48.19455" lon="5.93498">
        <ele>359.3</ele>
        <time>2024-02-20T15:19:35Z</time>
      </trkpt>
      <trkpt lat="48.19463" lon="5.93501">
        <ele>359.2</ele>
        <time>2024-02-20T15:19:37Z</time>
      </trkpt>
      <trkpt lat="48.19472" lon="5.93501">
        <ele>359.2</ele>
        <time>2024-02-20T15:19:39Z</time>
      </trkpt>
      <trkpt lat="48.1948" lon="5.93498">
        <ele>359.2</ele>
        <time>2024-02-20T15:19:41Z</time>
      </trkpt>
      <trkpt lat="48.19488" lon="5.93491">
        <ele>359.2</ele>
        <time>2024-02-20T15:19:43Z</time>
      </trkpt>
      <trkpt lat="48.19505" lon="5.93471">
        <ele>359.1</ele>
        <time>2024-02-20T15:19:48Z</time>
      </trkpt>
      <trkpt lat="48.1952" lon="5.93455">
        <ele>359.2</ele>
        <time>2024-02-20T15:19:52Z</time>
      </trkpt>
      <trkpt lat="48.19537" lon="5.93435">
        <ele>359.1</ele>
        <time>2024-02-20T15:19:57Z</time>
      </trkpt>
      <trkpt lat="48.19551" lon="5.93417">
        <ele>359</ele>
        <time>2024-02-20T15:20:01Z</time>
      </trkpt>
      <trkpt lat="48.19559" lon="5.93393">
        <ele>359</ele>
        <time>2024-02-20T15:20:05Z</time>
      </trkpt>
      <trkpt lat="48.19558" lon="5.93373">
        <ele>358.9</ele>
        <time>2024-02-20T15:20:08Z</time>
      </trkpt>
      <trkpt lat="48.19552" lon="5.93353">
        <ele>358.9</ele>
        <time>2024-02-20T15:20:11Z</time>
      </trkpt>
      <trkpt lat="48.19545" lon="5.93342">
        <ele>358.9</ele>
        <time>2024-02-20T15:20:13Z</time>
      </trkpt>
      <trkpt lat="48.19535" lon="5.93328">
        <ele>358.9</ele>
        <time>2024-02-20T15:20:16Z</time>
      </trkpt>
      <trkpt lat="48.19523" lon="5.93319">
        <ele>358.9</ele>
        <time>2024-02-20T15:20:19Z</time>
      </trkpt>
      <trkpt lat="48.19514" lon="5.93319">
        <ele>358.9</ele>
        <time>2024-02-20T15:20:21Z</time>
      </trkpt>
      <trkpt lat="48.19505" lon="5.93323">
        <ele>359</ele>
        <time>2024-02-20T15:20:23Z</time>
      </trkpt>
      <trkpt lat="48.19489" lon="5.93341">
        <ele>359</ele>
        <time>2024-02-20T15:20:27Z</time>
      </trkpt>
      <trkpt lat="48.19474" lon="5.93358">
        <ele>359.1</ele>
        <time>2024-02-20T15:20:31Z</time>
      </trkpt>
      <trkpt lat="48.1946" lon="5.93375">
        <ele>359.2</ele>
        <time>2024-02-20T15:20:35Z</time>
      </trkpt>
      <trkpt lat="48.19445" lon="5.93391">
        <ele>359.2</ele>
        <time>2024-02-20T15:20:39Z</time>
      </trkpt>
      <trkpt lat="48.19434" lon="5.93404">
        <ele>359.3</ele>
        <time>2024-02-20T15:20:42Z</time>
      </trkpt>
      <trkpt lat="48.19429" lon="5.93418">
        <ele>359.3</ele>
        <time>2024-02-20T15:20:44Z</time>
      </trkpt>
      <trkpt lat="48.19427" lon="5.93433">
        <ele>359.3</ele>
        <time>2024-02-20T15:20:46Z</time>
      </trkpt>
      <trkpt lat="48.19428" lon="5.93455">
        <ele>359.3</ele>
        <time>2024-02-20T15:20:49Z</time>
      </trkpt>
      <trkpt lat="48.19434" lon="5.93475">
        <ele>359.3</ele>
        <time>2024-02-20T15:20:52Z</time>
      </trkpt>
      <trkpt lat="48.1944" lon="5.93486">
        <ele>359.3</ele>
        <time>2024-02-20T15:20:54Z</time>
      </trkpt>
      <trkpt lat="48.19452" lon="5.93498">
        <ele>359.3</ele>
        <time>2024-02-20T15:20:57Z</time>
      </trkpt>
      <trkpt lat="48.19461" lon="5.93503">
        <ele>359.3</ele>
        <time>2024-02-20T15:20:59Z</time>
      </trkpt>
      <trkpt lat="48.19471" lon="5.93502">
        <ele>359.2</ele>
        <time>2024-02-20T15:21:01Z</time>
      </trkpt>
      <trkpt lat="48.19484" lon="5.93494">
        <ele>359.2</ele>
        <time>2024-02-20T15:21:04Z</time>
      </trkpt>
      <trkpt lat="48.19499" lon="5.93476">
        <ele>359.1</ele>
        <time>2024-02-20T15:21:08Z</time>
      </trkpt>
      <trkpt lat="48.19514" lon="5.93459">
        <ele>359.2</ele>
        <time>2024-02-20T15:21:12Z</time>
      </trkpt>
      <trkpt lat="48.19531" lon="5.93437">
        <ele>359.1</ele>
        <time>2024-02-20T15:21:17Z</time>
      </trkpt>
      <trkpt lat="48.19545" lon="5.9342">
        <ele>359</ele>
        <time>2024-02-20T15:21:21Z</time>
      </trkpt>
      <trkpt lat="48.19552" lon="5.9341">
        <ele>359</ele>
        <time>2024-02-20T15:21:23Z</time>
      </trkpt>
      <trkpt lat="48.19557" lon="5.9339">
        <ele>359</ele>
        <time>2024-02-20T15:21:26Z</time>
      </trkpt>
      <trkpt lat="48.19558" lon="5.93376">
        <ele>358.9</ele>
        <time>2024-02-20T15:21:28Z</time>
      </trkpt>
      <trkpt lat="48.19555" lon="5.93363">
        <ele>358.9</ele>
        <time>2024-02-20T15:21:30Z</time>
      </trkpt>
      <trkpt lat="48.19545" lon="5.93338">
        <ele>358.9</ele>
        <time>2024-02-20T15:21:34Z</time>
      </trkpt>
      <trkpt lat="48.19528" lon="5.93321">
        <ele>358.9</ele>
        <time>2024-02-20T15:21:38Z</time>
      </trkpt>
      <trkpt lat="48.19519" lon="5.93318">
        <ele>358.9</ele>
        <time>2024-02-20T15:21:40Z</time>
      </trkpt>
      <trkpt lat="48.19509" lon="5.93318">
        <ele>359</ele>
        <time>2024-02-20T15:21:42Z</time>
      </trkpt>
      <trkpt lat="48.195" lon="5.93323">
        <ele>359</ele>
        <time>2024-02-20T15:21:44Z</time>
      </trkpt>
      <trkpt lat="48.19483" lon="5.93341">
        <ele>359</ele>
        <time>2024-02-20T15:21:48Z</time>
      </trkpt>
      <trkpt lat="48.19467" lon="5.93359">
        <ele>359.2</ele>
        <time>2024-02-20T15:21:52Z</time>
      </trkpt>
      <trkpt lat="48.1945" lon="5.9338">
        <ele>359.2</ele>
        <time>2024-02-20T15:21:57Z</time>
      </trkpt>
      <trkpt lat="48.19433" lon="5.93401">
        <ele>359.3</ele>
        <time>2024-02-20T15:22:02Z</time>
      </trkpt>
      <trkpt lat="48.19425" lon="5.93421">
        <ele>359.3</ele>
        <time>2024-02-20T15:22:05Z</time>
      </trkpt>
      <trkpt lat="48.19423" lon="5.93436">
        <ele>359.3</ele>
        <time>2024-02-20T15:22:07Z</time>
      </trkpt>
      <trkpt lat="48.19426" lon="5.93458">
        <ele>359.3</ele>
        <time>2024-02-20T15:22:10Z</time>
      </trkpt>
      <trkpt lat="48.19431" lon="5.9347">
        <ele>359.3</ele>
        <time>2024-02-20T15:22:12Z</time>
      </trkpt>
      <trkpt lat="48.19436" lon="5.93481">
        <ele>359.3</ele>
        <time>2024-02-20T15:22:14Z</time>
      </trkpt>
      <trkpt lat="48.19443" lon="5.9349">
        <ele>359.3</ele>
        <time>2024-02-20T15:22:16Z</time>
      </trkpt>
      <trkpt lat="48.19451" lon="5.93497">
        <ele>359.3</ele>
        <time>2024-02-20T15:22:18Z</time>
      </trkpt>
      <trkpt lat="48.1947" lon="5.935">
        <ele>359.2</ele>
        <time>2024-02-20T15:22:22Z</time>
      </trkpt>
      <trkpt lat="48.19479" lon="5.93495">
        <ele>359.2</ele>
        <time>2024-02-20T15:22:24Z</time>
      </trkpt>
      <trkpt lat="48.19494" lon="5.93479">
        <ele>359.1</ele>
        <time>2024-02-20T15:22:28Z</time>
      </trkpt>
      <trkpt lat="48.19509" lon="5.93462">
        <ele>359.2</ele>
        <time>2024-02-20T15:22:32Z</time>
      </trkpt>
      <trkpt lat="48.19524" lon="5.93445">
        <ele>359.1</ele>
        <time>2024-02-20T15:22:36Z</time>
      </trkpt>
      <trkpt lat="48.19539" lon="5.93428">
        <ele>359.1</ele>
        <time>2024-02-20T15:22:40Z</time>
      </trkpt>
      <trkpt lat="48.19552" lon="5.93409">
        <ele>359</ele>
        <time>2024-02-20T15:22:44Z</time>
      </trkpt>
      <trkpt lat="48.19556" lon="5.93397">
        <ele>359</ele>
        <time>2024-02-20T15:22:46Z</time>
      </trkpt>
      <trkpt lat="48.19557" lon="5.93383">
        <ele>358.9</ele>
        <time>2024-02-20T15:22:48Z</time>
      </trkpt>
      <trkpt lat="48.19556" lon="5.93369">
        <ele>358.9</ele>
        <time>2024-02-20T15:22:50Z</time>
      </trkpt>
      <trkpt lat="48.19547" lon="5.93343">
        <ele>358.9</ele>
        <time>2024-02-20T15:22:54Z</time>
      </trkpt>
      <trkpt lat="48.19541" lon="5.93333">
        <ele>358.9</ele>
        <time>2024-02-20T15:22:56Z</time>
      </trkpt>
      <trkpt lat="48.19534" lon="5.93325">
        <ele>358.9</ele>
        <time>2024-02-20T15:22:58Z</time>
      </trkpt>
      <trkpt lat="48.19525" lon="5.9332">
        <ele>358.9</ele>
        <time>2024-02-20T15:23:00Z</time>
      </trkpt>
      <trkpt lat="48.19511" lon="5.9332">
        <ele>359</ele>
        <time>2024-02-20T15:23:03Z</time>
      </trkpt>
      <trkpt lat="48.19502" lon="5.93325">
        <ele>359</ele>
        <time>2024-02-20T15:23:05Z</time>
      </trkpt>
      <trkpt lat="48.19486" lon="5.93343">
        <ele>359</ele>
        <time>2024-02-20T15:23:09Z</time>
      </trkpt>
      <trkpt lat="48.19469" lon="5.93362">
        <ele>359.2</ele>
        <time>2024-02-20T15:23:13Z</time>
      </trkpt>
      <trkpt lat="48.19462" lon="5.93371">
        <ele>359.2</ele>
        <time>2024-02-20T15:23:14Z</time>
      </trkpt>
      <trkpt lat="48.19446" lon="5.93388">
        <ele>359.2</ele>
        <time>2024-02-20T15:23:19Z</time>
      </trkpt>
      <trkpt lat="48.19442" lon="5.93393">
        <ele>359.2</ele>
        <time>2024-02-20T15:23:20Z</time>
      </trkpt>
      <trkpt lat="48.19425" lon="5.93412">
        <ele>359.3</ele>
        <time>2024-02-20T15:23:25Z</time>
      </trkpt>
      <trkpt lat="48.19419" lon="5.93427">
        <ele>359.3</ele>
        <time>2024-02-20T15:23:30Z</time>
      </trkpt>
      <trkpt lat="48.19421" lon="5.93425">
        <ele>359.3</ele>
        <time>2024-02-20T15:23:33Z</time>
      </trkpt>
      <trkpt lat="48.19425" lon="5.93412">
        <ele>359.3</ele>
        <time>2024-02-20T15:23:38Z</time>
      </trkpt>
      <trkpt lat="48.19437" lon="5.9339">
        <ele>359.3</ele>
        <time>2024-02-20T15:23:49Z</time>
      </trkpt>
      <trkpt lat="48.1945" lon="5.93372">
        <ele>359.2</ele>
        <time>2024-02-20T15:24:00Z</time>
      </trkpt>
      <trkpt lat="48.19451" lon="5.93374">
        <ele>359.2</ele>
        <time>2024-02-20T15:24:02Z</time>
      </trkpt>
      <trkpt lat="48.19439" lon="5.93392">
        <ele>359.2</ele>
        <time>2024-02-20T15:24:12Z</time>
      </trkpt>
      <trkpt lat="48.1944" lon="5.93388">
        <ele>359.2</ele>
        <time>2024-02-20T15:24:15Z</time>
      </trkpt>
      <trkpt lat="48.19456" lon="5.93371">
        <ele>359.2</ele>
        <time>2024-02-20T15:24:25Z</time>
      </trkpt>
      <trkpt lat="48.1947" lon="5.93353">
        <ele>359.1</ele>
        <time>2024-02-20T15:24:36Z</time>
      </trkpt>
      <trkpt lat="48.19485" lon="5.93337">
        <ele>359</ele>
        <time>2024-02-20T15:24:52Z</time>
      </trkpt>
      <trkpt lat="48.195" lon="5.93319">
        <ele>359</ele>
        <time>2024-02-20T15:25:04Z</time>
      </trkpt>
      <trkpt lat="48.19518" lon="5.93314">
        <ele>358.9</ele>
        <time>2024-02-20T15:25:16Z</time>
      </trkpt>
      <trkpt lat="48.1952" lon="5.93315">
        <ele>358.9</ele>
        <time>2024-02-20T15:25:17Z</time>
      </trkpt>
      <trkpt lat="48.19521" lon="5.93318">
        <ele>358.9</ele>
        <time>2024-02-20T15:25:19Z</time>
      </trkpt>
      <trkpt lat="48.19513" lon="5.93323">
        <ele>358.9</ele>
        <time>2024-02-20T15:25:28Z</time>
      </trkpt>
      <trkpt lat="48.19506" lon="5.93327">
        <ele>359</ele>
        <time>2024-02-20T15:25:31Z</time>
      </trkpt>
      <trkpt lat="48.19488" lon="5.93344">
        <ele>359</ele>
        <time>2024-02-20T15:25:35Z</time>
      </trkpt>
      <trkpt lat="48.19471" lon="5.93365">
        <ele>359.2</ele>
        <time>2024-02-20T15:25:39Z</time>
      </trkpt>
      <trkpt lat="48.19454" lon="5.93386">
        <ele>359.2</ele>
        <time>2024-02-20T15:25:43Z</time>
      </trkpt>
      <trkpt lat="48.19438" lon="5.93406">
        <ele>359.3</ele>
        <time>2024-02-20T15:25:47Z</time>
      </trkpt>
      <trkpt lat="48.19431" lon="5.93418">
        <ele>359.3</ele>
        <time>2024-02-20T15:25:48Z</time>
      </trkpt>
      <trkpt lat="48.19429" lon="5.93425">
        <ele>359.3</ele>
        <time>2024-02-20T15:25:50Z</time>
      </trkpt>
      <trkpt lat="48.19428" lon="5.9344">
        <ele>359.3</ele>
        <time>2024-02-20T15:25:52Z</time>
      </trkpt>
      <trkpt lat="48.1943" lon="5.93455">
        <ele>359.3</ele>
        <time>2024-02-20T15:25:54Z</time>
      </trkpt>
      <trkpt lat="48.19439" lon="5.93476">
        <ele>359.3</ele>
        <time>2024-02-20T15:25:57Z</time>
      </trkpt>
      <trkpt lat="48.19451" lon="5.9349">
        <ele>359.3</ele>
        <time>2024-02-20T15:26:00Z</time>
      </trkpt>
      <trkpt lat="48.19461" lon="5.93496">
        <ele>359.3</ele>
        <time>2024-02-20T15:26:02Z</time>
      </trkpt>
      <trkpt lat="48.1947" lon="5.93497">
        <ele>359.2</ele>
        <time>2024-02-20T15:26:04Z</time>
      </trkpt>
      <trkpt lat="48.19485" lon="5.93489">
        <ele>359.2</ele>
        <time>2024-02-20T15:26:07Z</time>
      </trkpt>
      <trkpt lat="48.19501" lon="5.93469">
        <ele>359.1</ele>
        <time>2024-02-20T15:26:11Z</time>
      </trkpt>
      <trkpt lat="48.19517" lon="5.93448">
        <ele>359.2</ele>
        <time>2024-02-20T15:26:15Z</time>
      </trkpt>
      <trkpt lat="48.19534" lon="5.93427">
        <ele>359.1</ele>
        <time>2024-02-20T15:26:19Z</time>
      </trkpt>
      <trkpt lat="48.19549" lon="5.93404">
        <ele>359</ele>
        <time>2024-02-20T15:26:23Z</time>
      </trkpt>
      <trkpt lat="48.19555" lon="5.93392">
        <ele>359</ele>
        <time>2024-02-20T15:26:25Z</time>
      </trkpt>
      <trkpt lat="48.19556" lon="5.93369">
        <ele>358.9</ele>
        <time>2024-02-20T15:26:28Z</time>
      </trkpt>
      <trkpt lat="48.19551" lon="5.93355">
        <ele>358.9</ele>
        <time>2024-02-20T15:26:30Z</time>
      </trkpt>
      <trkpt lat="48.19537" lon="5.93332">
        <ele>358.9</ele>
        <time>2024-02-20T15:26:34Z</time>
      </trkpt>
      <trkpt lat="48.19528" lon="5.93325">
        <ele>358.9</ele>
        <time>2024-02-20T15:26:36Z</time>
      </trkpt>
      <trkpt lat="48.19518" lon="5.93321">
        <ele>358.9</ele>
        <time>2024-02-20T15:26:38Z</time>
      </trkpt>
      <trkpt lat="48.19509" lon="5.93323">
        <ele>359</ele>
        <time>2024-02-20T15:26:40Z</time>
      </trkpt>
      <trkpt lat="48.19495" lon="5.93334">
        <ele>359</ele>
        <time>2024-02-20T15:26:43Z</time>
      </trkpt>
      <trkpt lat="48.19479" lon="5.93354">
        <ele>359</ele>
        <time>2024-02-20T15:26:47Z</time>
      </trkpt>
      <trkpt lat="48.19463" lon="5.93374">
        <ele>359</ele>
        <time>2024-02-20T15:26:51Z</time>
      </trkpt>
      <trkpt lat="48.19446" lon="5.93396">
        <ele>359.1</ele>
        <time>2024-02-20T15:26:55Z</time>
      </trkpt>
      <trkpt lat="48.1943" lon="5.93414">
        <ele>359.2</ele>
        <time>2024-02-20T15:26:59Z</time>
      </trkpt>
      <trkpt lat="48.19424" lon="5.9342">
        <ele>359.2</ele>
        <time>2024-02-20T15:27:00Z</time>
      </trkpt>
      <trkpt lat="48.19422" lon="5.9342">
        <ele>359.2</ele>
        <time>2024-02-20T15:27:02Z</time>
      </trkpt>
      <trkpt lat="48.19419" lon="5.93415">
        <ele>359.2</ele>
        <time>2024-02-20T15:27:04Z</time>
      </trkpt>
      <trkpt lat="48.19421" lon="5.9341">
        <ele>359.2</ele>
        <time>2024-02-20T15:27:06Z</time>
      </trkpt>
      <trkpt lat="48.19438" lon="5.93398">
        <ele>359.2</ele>
        <time>2024-02-20T15:27:18Z</time>
      </trkpt>
      <trkpt lat="48.19439" lon="5.93395">
        <ele>359.2</ele>
        <time>2024-02-20T15:27:21Z</time>
      </trkpt>
      <trkpt lat="48.19441" lon="5.93392">
        <ele>359.2</ele>
        <time>2024-02-20T15:27:23Z</time>
      </trkpt>
      <trkpt lat="48.19453" lon="5.93383">
        <ele>359.2</ele>
        <time>2024-02-20T15:27:37Z</time>
      </trkpt>
      <trkpt lat="48.19454" lon="5.93383">
        <ele>359.2</ele>
        <time>2024-02-20T15:27:39Z</time>
      </trkpt>
      <trkpt lat="48.19462" lon="5.93371">
        <ele>359.2</ele>
        <time>2024-02-20T15:27:51Z</time>
      </trkpt>
      <trkpt lat="48.19463" lon="5.93372">
        <ele>359.2</ele>
        <time>2024-02-20T15:27:53Z</time>
      </trkpt>
      <trkpt lat="48.19461" lon="5.93375">
        <ele>359.2</ele>
        <time>2024-02-20T15:27:57Z</time>
      </trkpt>
      <trkpt lat="48.19445" lon="5.93389">
        <ele>359.3</ele>
        <time>2024-02-20T15:28:15Z</time>
      </trkpt>
      <trkpt lat="48.19429" lon="5.93404">
        <ele>359.3</ele>
        <time>2024-02-20T15:28:33Z</time>
      </trkpt>
      <trkpt lat="48.19422" lon="5.93416">
        <ele>359.3</ele>
        <time>2024-02-20T15:28:46Z</time>
      </trkpt>
      <trkpt lat="48.19425" lon="5.93414">
        <ele>359.3</ele>
        <time>2024-02-20T15:28:49Z</time>
      </trkpt>
      <trkpt lat="48.1944" lon="5.93399">
        <ele>359.3</ele>
        <time>2024-02-20T15:29:04Z</time>
      </trkpt>
      <trkpt lat="48.19439" lon="5.93402">
        <ele>359.3</ele>
        <time>2024-02-20T15:29:06Z</time>
      </trkpt>
      <trkpt lat="48.19429" lon="5.93427">
        <ele>359.3</ele>
        <time>2024-02-20T15:29:16Z</time>
      </trkpt>
      <trkpt lat="48.19431" lon="5.93455">
        <ele>359.3</ele>
        <time>2024-02-20T15:29:27Z</time>
      </trkpt>
      <trkpt lat="48.19441" lon="5.93478">
        <ele>359.3</ele>
        <time>2024-02-20T15:29:36Z</time>
      </trkpt>
      <trkpt lat="48.19456" lon="5.93495">
        <ele>359.3</ele>
        <time>2024-02-20T15:29:46Z</time>
      </trkpt>
      <trkpt lat="48.19469" lon="5.93498">
        <ele>359.2</ele>
        <time>2024-02-20T15:30:01Z</time>
      </trkpt>
      <trkpt lat="48.19488" lon="5.93487">
        <ele>359.2</ele>
        <time>2024-02-20T15:30:07Z</time>
      </trkpt>
      <trkpt lat="48.19502" lon="5.9347">
        <ele>359.1</ele>
        <time>2024-02-20T15:30:11Z</time>
      </trkpt>
      <trkpt lat="48.1952" lon="5.9345">
        <ele>359.2</ele>
        <time>2024-02-20T15:30:16Z</time>
      </trkpt>
      <trkpt lat="48.19534" lon="5.93432">
        <ele>359.1</ele>
        <time>2024-02-20T15:30:20Z</time>
      </trkpt>
      <trkpt lat="48.19551" lon="5.9341">
        <ele>359</ele>
        <time>2024-02-20T15:30:25Z</time>
      </trkpt>
      <trkpt lat="48.19555" lon="5.93399">
        <ele>359</ele>
        <time>2024-02-20T15:30:26Z</time>
      </trkpt>
      <trkpt lat="48.19557" lon="5.93393">
        <ele>359</ele>
        <time>2024-02-20T15:30:28Z</time>
      </trkpt>
      <trkpt lat="48.19557" lon="5.93372">
        <ele>358.9</ele>
        <time>2024-02-20T15:30:31Z</time>
      </trkpt>
      <trkpt lat="48.19554" lon="5.93359">
        <ele>358.9</ele>
        <time>2024-02-20T15:30:33Z</time>
      </trkpt>
      <trkpt lat="48.1955" lon="5.93347">
        <ele>358.9</ele>
        <time>2024-02-20T15:30:35Z</time>
      </trkpt>
      <trkpt lat="48.1954" lon="5.93332">
        <ele>358.9</ele>
        <time>2024-02-20T15:30:38Z</time>
      </trkpt>
      <trkpt lat="48.19532" lon="5.93324">
        <ele>358.9</ele>
        <time>2024-02-20T15:30:40Z</time>
      </trkpt>
      <trkpt lat="48.19519" lon="5.93319">
        <ele>358.9</ele>
        <time>2024-02-20T15:30:43Z</time>
      </trkpt>
      <trkpt lat="48.19504" lon="5.93321">
        <ele>359</ele>
        <time>2024-02-20T15:30:46Z</time>
      </trkpt>
      <trkpt lat="48.19496" lon="5.93328">
        <ele>359</ele>
        <time>2024-02-20T15:30:48Z</time>
      </trkpt>
      <trkpt lat="48.19481" lon="5.93344">
        <ele>359.1</ele>
        <time>2024-02-20T15:30:52Z</time>
      </trkpt>
      <trkpt lat="48.19463" lon="5.93364">
        <ele>359.2</ele>
        <time>2024-02-20T15:30:57Z</time>
      </trkpt>
      <trkpt lat="48.19447" lon="5.93384">
        <ele>359.2</ele>
        <time>2024-02-20T15:31:02Z</time>
      </trkpt>
      <trkpt lat="48.19431" lon="5.93406">
        <ele>359.3</ele>
        <time>2024-02-20T15:31:07Z</time>
      </trkpt>
      <trkpt lat="48.19427" lon="5.93418">
        <ele>359.3</ele>
        <time>2024-02-20T15:31:09Z</time>
      </trkpt>
      <trkpt lat="48.19424" lon="5.93439">
        <ele>359.3</ele>
        <time>2024-02-20T15:31:12Z</time>
      </trkpt>
      <trkpt lat="48.19428" lon="5.93458">
        <ele>359.3</ele>
        <time>2024-02-20T15:31:15Z</time>
      </trkpt>
      <trkpt lat="48.19437" lon="5.93481">
        <ele>359.3</ele>
        <time>2024-02-20T15:31:19Z</time>
      </trkpt>
      <trkpt lat="48.19444" lon="5.93489">
        <ele>359.3</ele>
        <time>2024-02-20T15:31:21Z</time>
      </trkpt>
      <trkpt lat="48.19452" lon="5.93496">
        <ele>359.3</ele>
        <time>2024-02-20T15:31:23Z</time>
      </trkpt>
      <trkpt lat="48.19465" lon="5.935">
        <ele>359.2</ele>
        <time>2024-02-20T15:31:26Z</time>
      </trkpt>
      <trkpt lat="48.19474" lon="5.93497">
        <ele>359.2</ele>
        <time>2024-02-20T15:31:28Z</time>
      </trkpt>
      <trkpt lat="48.1949" lon="5.93483">
        <ele>359.2</ele>
        <time>2024-02-20T15:31:32Z</time>
      </trkpt>
      <trkpt lat="48.19505" lon="5.93468">
        <ele>359.1</ele>
        <time>2024-02-20T15:31:36Z</time>
      </trkpt>
      <trkpt lat="48.19521" lon="5.93447">
        <ele>359.1</ele>
        <time>2024-02-20T15:31:41Z</time>
      </trkpt>
      <trkpt lat="48.19539" lon="5.93426">
        <ele>359</ele>
        <time>2024-02-20T15:31:46Z</time>
      </trkpt>
      <trkpt lat="48.19548" lon="5.93413">
        <ele>359</ele>
        <time>2024-02-20T15:31:49Z</time>
      </trkpt>
      <trkpt lat="48.19554" lon="5.93396">
        <ele>359</ele>
        <time>2024-02-20T15:31:52Z</time>
      </trkpt>
      <trkpt lat="48.19555" lon="5.93383">
        <ele>358.9</ele>
        <time>2024-02-20T15:31:54Z</time>
      </trkpt>
      <trkpt lat="48.19552" lon="5.93364">
        <ele>358.9</ele>
        <time>2024-02-20T15:31:57Z</time>
      </trkpt>
      <trkpt lat="48.19545" lon="5.93347">
        <ele>358.9</ele>
        <time>2024-02-20T15:32:00Z</time>
      </trkpt>
      <trkpt lat="48.19536" lon="5.93332">
        <ele>358.9</ele>
        <time>2024-02-20T15:32:03Z</time>
      </trkpt>
      <trkpt lat="48.19524" lon="5.93322">
        <ele>358.9</ele>
        <time>2024-02-20T15:32:06Z</time>
      </trkpt>
      <trkpt lat="48.19515" lon="5.93321">
        <ele>358.9</ele>
        <time>2024-02-20T15:32:08Z</time>
      </trkpt>
      <trkpt lat="48.19502" lon="5.93326">
        <ele>359</ele>
        <time>2024-02-20T15:32:11Z</time>
      </trkpt>
      <trkpt lat="48.19488" lon="5.93343">
        <ele>359</ele>
        <time>2024-02-20T15:32:15Z</time>
      </trkpt>
      <trkpt lat="48.1947" lon="5.93363">
        <ele>359.2</ele>
        <time>2024-02-20T15:32:20Z</time>
      </trkpt>
      <trkpt lat="48.19456" lon="5.9338">
        <ele>359.2</ele>
        <time>2024-02-20T15:32:24Z</time>
      </trkpt>
      <trkpt lat="48.19438" lon="5.934">
        <ele>359.3</ele>
        <time>2024-02-20T15:32:29Z</time>
      </trkpt>
      <trkpt lat="48.19432" lon="5.93411">
        <ele>359.3</ele>
        <time>2024-02-20T15:32:31Z</time>
      </trkpt>
      <trkpt lat="48.19426" lon="5.9343">
        <ele>359.3</ele>
        <time>2024-02-20T15:32:34Z</time>
      </trkpt>
      <trkpt lat="48.19426" lon="5.93443">
        <ele>359.3</ele>
        <time>2024-02-20T15:32:36Z</time>
      </trkpt>
      <trkpt lat="48.19427" lon="5.93456">
        <ele>359.3</ele>
        <time>2024-02-20T15:32:38Z</time>
      </trkpt>
      <trkpt lat="48.19431" lon="5.93469">
        <ele>359.3</ele>
        <time>2024-02-20T15:32:40Z</time>
      </trkpt>
      <trkpt lat="48.1944" lon="5.93485">
        <ele>359.3</ele>
        <time>2024-02-20T15:32:43Z</time>
      </trkpt>
      <trkpt lat="48.19451" lon="5.93496">
        <ele>359.3</ele>
        <time>2024-02-20T15:32:46Z</time>
      </trkpt>
      <trkpt lat="48.1946" lon="5.935">
        <ele>359.3</ele>
        <time>2024-02-20T15:32:48Z</time>
      </trkpt>
      <trkpt lat="48.19474" lon="5.93499">
        <ele>359.2</ele>
        <time>2024-02-20T15:32:51Z</time>
      </trkpt>
      <trkpt lat="48.19482" lon="5.93494">
        <ele>359.2</ele>
        <time>2024-02-20T15:32:53Z</time>
      </trkpt>
      <trkpt lat="48.19497" lon="5.93478">
        <ele>359.1</ele>
        <time>2024-02-20T15:32:57Z</time>
      </trkpt>
      <trkpt lat="48.19511" lon="5.9346">
        <ele>359.2</ele>
        <time>2024-02-20T15:33:01Z</time>
      </trkpt>
      <trkpt lat="48.19528" lon="5.93441">
        <ele>359.1</ele>
        <time>2024-02-20T15:33:06Z</time>
      </trkpt>
      <trkpt lat="48.19545" lon="5.93421">
        <ele>359</ele>
        <time>2024-02-20T15:33:11Z</time>
      </trkpt>
      <trkpt lat="48.19556" lon="5.93395">
        <ele>359</ele>
        <time>2024-02-20T15:33:16Z</time>
      </trkpt>
      <trkpt lat="48.19554" lon="5.93364">
        <ele>358.9</ele>
        <time>2024-02-20T15:33:21Z</time>
      </trkpt>
      <trkpt lat="48.19544" lon="5.93341">
        <ele>358.9</ele>
        <time>2024-02-20T15:33:25Z</time>
      </trkpt>
      <trkpt lat="48.19529" lon="5.93325">
        <ele>358.9</ele>
        <time>2024-02-20T15:33:29Z</time>
      </trkpt>
      <trkpt lat="48.19507" lon="5.93321">
        <ele>359</ele>
        <time>2024-02-20T15:33:34Z</time>
      </trkpt>
      <trkpt lat="48.1949" lon="5.93334">
        <ele>359</ele>
        <time>2024-02-20T15:33:38Z</time>
      </trkpt>
      <trkpt lat="48.19476" lon="5.93351">
        <ele>359.1</ele>
        <time>2024-02-20T15:33:42Z</time>
      </trkpt>
      <trkpt lat="48.1946" lon="5.93372">
        <ele>359.2</ele>
        <time>2024-02-20T15:33:47Z</time>
      </trkpt>
      <trkpt lat="48.19445" lon="5.93389">
        <ele>359.2</ele>
        <time>2024-02-20T15:33:51Z</time>
      </trkpt>
      <trkpt lat="48.19432" lon="5.93407">
        <ele>359.3</ele>
        <time>2024-02-20T15:33:55Z</time>
      </trkpt>
      <trkpt lat="48.19425" lon="5.93426">
        <ele>359.3</ele>
        <time>2024-02-20T15:33:58Z</time>
      </trkpt>
      <trkpt lat="48.19424" lon="5.93446">
        <ele>359.3</ele>
        <time>2024-02-20T15:34:01Z</time>
      </trkpt>
      <trkpt lat="48.19427" lon="5.93459">
        <ele>359.3</ele>
        <time>2024-02-20T15:34:03Z</time>
      </trkpt>
      <trkpt lat="48.19434" lon="5.93477">
        <ele>359.3</ele>
        <time>2024-02-20T15:34:06Z</time>
      </trkpt>
      <trkpt lat="48.19444" lon="5.93493">
        <ele>359.3</ele>
        <time>2024-02-20T15:34:09Z</time>
      </trkpt>
      <trkpt lat="48.19451" lon="5.935">
        <ele>359.3</ele>
        <time>2024-02-20T15:34:11Z</time>
      </trkpt>
      <trkpt lat="48.1947" lon="5.93501">
        <ele>359.2</ele>
        <time>2024-02-20T15:34:15Z</time>
      </trkpt>
      <trkpt lat="48.19479" lon="5.93497">
        <ele>359.2</ele>
        <time>2024-02-20T15:34:16Z</time>
      </trkpt>
      <trkpt lat="48.19487" lon="5.9349">
        <ele>359.2</ele>
        <time>2024-02-20T15:34:19Z</time>
      </trkpt>
      <trkpt lat="48.19501" lon="5.93473">
        <ele>359.1</ele>
        <time>2024-02-20T15:34:23Z</time>
      </trkpt>
      <trkpt lat="48.19519" lon="5.93451">
        <ele>359.2</ele>
        <time>2024-02-20T15:34:28Z</time>
      </trkpt>
      <trkpt lat="48.19535" lon="5.93434">
        <ele>359.1</ele>
        <time>2024-02-20T15:34:32Z</time>
      </trkpt>
      <trkpt lat="48.19549" lon="5.93416">
        <ele>359</ele>
        <time>2024-02-20T15:34:36Z</time>
      </trkpt>
      <trkpt lat="48.19554" lon="5.93403">
        <ele>359</ele>
        <time>2024-02-20T15:34:38Z</time>
      </trkpt>
      <trkpt lat="48.19556" lon="5.93381">
        <ele>358.9</ele>
        <time>2024-02-20T15:34:41Z</time>
      </trkpt>
      <trkpt lat="48.19553" lon="5.93366">
        <ele>358.9</ele>
        <time>2024-02-20T15:34:43Z</time>
      </trkpt>
      <trkpt lat="48.19547" lon="5.93346">
        <ele>358.9</ele>
        <time>2024-02-20T15:34:46Z</time>
      </trkpt>
      <trkpt lat="48.1954" lon="5.93335">
        <ele>358.9</ele>
        <time>2024-02-20T15:34:48Z</time>
      </trkpt>
      <trkpt lat="48.19523" lon="5.93321">
        <ele>358.9</ele>
        <time>2024-02-20T15:34:52Z</time>
      </trkpt>
      <trkpt lat="48.19514" lon="5.93319">
        <ele>359</ele>
        <time>2024-02-20T15:34:54Z</time>
      </trkpt>
      <trkpt lat="48.19499" lon="5.93326">
        <ele>359</ele>
        <time>2024-02-20T15:34:57Z</time>
      </trkpt>
      <trkpt lat="48.19482" lon="5.93346">
        <ele>359.1</ele>
        <time>2024-02-20T15:35:01Z</time>
      </trkpt>
      <trkpt lat="48.19466" lon="5.93364">
        <ele>359.2</ele>
        <time>2024-02-20T15:35:05Z</time>
      </trkpt>
      <trkpt lat="48.19449" lon="5.93383">
        <ele>359.2</ele>
        <time>2024-02-20T15:35:09Z</time>
      </trkpt>
      <trkpt lat="48.19441" lon="5.93393">
        <ele>359.2</ele>
        <time>2024-02-20T15:35:11Z</time>
      </trkpt>
      <trkpt lat="48.19426" lon="5.93415">
        <ele>359.3</ele>
        <time>2024-02-20T15:35:16Z</time>
      </trkpt>
      <trkpt lat="48.19424" lon="5.93418">
        <ele>359.3</ele>
        <time>2024-02-20T15:35:17Z</time>
      </trkpt>
      <trkpt lat="48.19422" lon="5.93426">
        <ele>359.3</ele>
        <time>2024-02-20T15:35:19Z</time>
      </trkpt>
      <trkpt lat="48.19427" lon="5.93423">
        <ele>359.3</ele>
        <time>2024-02-20T15:35:22Z</time>
      </trkpt>
      <trkpt lat="48.19436" lon="5.934">
        <ele>359.3</ele>
        <time>2024-02-20T15:35:31Z</time>
      </trkpt>
      <trkpt lat="48.19443" lon="5.93393">
        <ele>359.2</ele>
        <time>2024-02-20T15:35:40Z</time>
      </trkpt>
      <trkpt lat="48.19456" lon="5.93373">
        <ele>359.2</ele>
        <time>2024-02-20T15:35:56Z</time>
      </trkpt>
      <trkpt lat="48.1947" lon="5.93354">
        <ele>359.2</ele>
        <time>2024-02-20T15:36:17Z</time>
      </trkpt>
      <trkpt lat="48.19473" lon="5.93356">
        <ele>359.1</ele>
        <time>2024-02-20T15:36:22Z</time>
      </trkpt>
      <trkpt lat="48.19474" lon="5.93355">
        <ele>359.1</ele>
        <time>2024-02-20T15:36:25Z</time>
      </trkpt>
      <trkpt lat="48.19476" lon="5.93353">
        <ele>359.1</ele>
        <time>2024-02-20T15:36:28Z</time>
      </trkpt>
      <trkpt lat="48.19477" lon="5.93351">
        <ele>359.1</ele>
        <time>2024-02-20T15:36:30Z</time>
      </trkpt>
      <trkpt lat="48.19493" lon="5.93335">
        <ele>359</ele>
        <time>2024-02-20T15:36:46Z</time>
      </trkpt>
      <trkpt lat="48.19505" lon="5.93315">
        <ele>359</ele>
        <time>2024-02-20T15:37:07Z</time>
      </trkpt>
      <trkpt lat="48.19507" lon="5.93315">
        <ele>359</ele>
        <time>2024-02-20T15:37:09Z</time>
      </trkpt>
      <trkpt lat="48.19515" lon="5.93321">
        <ele>359</ele>
        <time>2024-02-20T15:37:15Z</time>
      </trkpt>
      <trkpt lat="48.19514" lon="5.93323">
        <ele>359</ele>
        <time>2024-02-20T15:37:17Z</time>
      </trkpt>
      <trkpt lat="48.19514" lon="5.93323">
        <ele>359</ele>
        <time>2024-02-20T15:37:18Z</time>
      </trkpt>
      <trkpt lat="48.19495" lon="5.93338">
        <ele>359</ele>
        <time>2024-02-20T15:37:23Z</time>
      </trkpt>
      <trkpt lat="48.19477" lon="5.9336">
        <ele>359.1</ele>
        <time>2024-02-20T15:37:27Z</time>
      </trkpt>
      <trkpt lat="48.1946" lon="5.9338">
        <ele>359.2</ele>
        <time>2024-02-20T15:37:31Z</time>
      </trkpt>
      <trkpt lat="48.19442" lon="5.934">
        <ele>359.3</ele>
        <time>2024-02-20T15:37:35Z</time>
      </trkpt>
      <trkpt lat="48.19434" lon="5.93411">
        <ele>359.3</ele>
        <time>2024-02-20T15:37:37Z</time>
      </trkpt>
      <trkpt lat="48.19429" lon="5.93425">
        <ele>359.3</ele>
        <time>2024-02-20T15:37:39Z</time>
      </trkpt>
      <trkpt lat="48.19427" lon="5.93441">
        <ele>359.3</ele>
        <time>2024-02-20T15:37:41Z</time>
      </trkpt>
      <trkpt lat="48.19428" lon="5.93456">
        <ele>359.3</ele>
        <time>2024-02-20T15:37:43Z</time>
      </trkpt>
      <trkpt lat="48.19437" lon="5.93477">
        <ele>359.3</ele>
        <time>2024-02-20T15:37:46Z</time>
      </trkpt>
      <trkpt lat="48.1945" lon="5.93492">
        <ele>359.3</ele>
        <time>2024-02-20T15:37:49Z</time>
      </trkpt>
      <trkpt lat="48.19466" lon="5.93499">
        <ele>359.2</ele>
        <time>2024-02-20T15:37:52Z</time>
      </trkpt>
      <trkpt lat="48.19476" lon="5.93496">
        <ele>359.2</ele>
        <time>2024-02-20T15:37:54Z</time>
      </trkpt>
      <trkpt lat="48.19491" lon="5.93483">
        <ele>359.2</ele>
        <time>2024-02-20T15:37:57Z</time>
      </trkpt>
      <trkpt lat="48.19509" lon="5.93461">
        <ele>359.2</ele>
        <time>2024-02-20T15:38:01Z</time>
      </trkpt>
      <trkpt lat="48.19525" lon="5.93439">
        <ele>359.1</ele>
        <time>2024-02-20T15:38:05Z</time>
      </trkpt>
      <trkpt lat="48.19543" lon="5.93417">
        <ele>359</ele>
        <time>2024-02-20T15:38:09Z</time>
      </trkpt>
      <trkpt lat="48.19551" lon="5.93405">
        <ele>359</ele>
        <time>2024-02-20T15:38:10Z</time>
      </trkpt>
      <trkpt lat="48.19554" lon="5.93398">
        <ele>359</ele>
        <time>2024-02-20T15:38:12Z</time>
      </trkpt>
      <trkpt lat="48.19557" lon="5.93383">
        <ele>358.9</ele>
        <time>2024-02-20T15:38:14Z</time>
      </trkpt>
      <trkpt lat="48.19554" lon="5.93359">
        <ele>358.9</ele>
        <time>2024-02-20T15:38:17Z</time>
      </trkpt>
      <trkpt lat="48.19549" lon="5.93345">
        <ele>358.9</ele>
        <time>2024-02-20T15:38:19Z</time>
      </trkpt>
      <trkpt lat="48.19541" lon="5.93334">
        <ele>358.9</ele>
        <time>2024-02-20T15:38:21Z</time>
      </trkpt>
      <trkpt lat="48.19532" lon="5.93325">
        <ele>358.9</ele>
        <time>2024-02-20T15:38:23Z</time>
      </trkpt>
      <trkpt lat="48.19521" lon="5.93321">
        <ele>358.9</ele>
        <time>2024-02-20T15:38:25Z</time>
      </trkpt>
      <trkpt lat="48.19505" lon="5.93324">
        <ele>359</ele>
        <time>2024-02-20T15:38:28Z</time>
      </trkpt>
      <trkpt lat="48.19495" lon="5.93333">
        <ele>359</ele>
        <time>2024-02-20T15:38:30Z</time>
      </trkpt>
      <trkpt lat="48.19477" lon="5.93354">
        <ele>359</ele>
        <time>2024-02-20T15:38:34Z</time>
      </trkpt>
      <trkpt lat="48.19459" lon="5.93376">
        <ele>359.1</ele>
        <time>2024-02-20T15:38:38Z</time>
      </trkpt>
      <trkpt lat="48.19441" lon="5.93398">
        <ele>359.2</ele>
        <time>2024-02-20T15:38:42Z</time>
      </trkpt>
      <trkpt lat="48.19427" lon="5.93417">
        <ele>359.2</ele>
        <time>2024-02-20T15:38:46Z</time>
      </trkpt>
      <trkpt lat="48.19421" lon="5.93422">
        <ele>359.2</ele>
        <time>2024-02-20T15:38:48Z</time>
      </trkpt>
      <trkpt lat="48.19418" lon="5.93419">
        <ele>359.2</ele>
        <time>2024-02-20T15:38:50Z</time>
      </trkpt>
      <trkpt lat="48.19419" lon="5.93413">
        <ele>359.2</ele>
        <time>2024-02-20T15:38:52Z</time>
      </trkpt>
      <trkpt lat="48.19436" lon="5.934">
        <ele>359.2</ele>
        <time>2024-02-20T15:39:02Z</time>
      </trkpt>
      <trkpt lat="48.19439" lon="5.93397">
        <ele>359.2</ele>
        <time>2024-02-20T15:39:04Z</time>
      </trkpt>
      <trkpt lat="48.19441" lon="5.93391">
        <ele>359.2</ele>
        <time>2024-02-20T15:39:07Z</time>
      </trkpt>
      <trkpt lat="48.19439" lon="5.9339">
        <ele>359.2</ele>
        <time>2024-02-20T15:39:09Z</time>
      </trkpt>
      <trkpt lat="48.19435" lon="5.93395">
        <ele>359.2</ele>
        <time>2024-02-20T15:39:13Z</time>
      </trkpt>
      <trkpt lat="48.19435" lon="5.93393">
        <ele>359.2</ele>
        <time>2024-02-20T15:39:15Z</time>
      </trkpt>
      <trkpt lat="48.19451" lon="5.93382">
        <ele>359.3</ele>
        <time>2024-02-20T15:39:41Z</time>
      </trkpt>
      <trkpt lat="48.19455" lon="5.93382">
        <ele>359.3</ele>
        <time>2024-02-20T15:39:46Z</time>
      </trkpt>
      <trkpt lat="48.19465" lon="5.93375">
        <ele>359.3</ele>
        <time>2024-02-20T15:40:28Z</time>
      </trkpt>
      <trkpt lat="48.19467" lon="5.93373">
        <ele>359.3</ele>
        <time>2024-02-20T15:40:32Z</time>
      </trkpt>
      <trkpt lat="48.19454" lon="5.93383">
        <ele>359.3</ele>
        <time>2024-02-20T15:41:07Z</time>
      </trkpt>
      <trkpt lat="48.1944" lon="5.934">
        <ele>359.3</ele>
        <time>2024-02-20T15:41:17Z</time>
      </trkpt>
      <trkpt lat="48.19429" lon="5.93425">
        <ele>359.3</ele>
        <time>2024-02-20T15:41:26Z</time>
      </trkpt>
      <trkpt lat="48.19429" lon="5.93453">
        <ele>359.3</ele>
        <time>2024-02-20T15:41:34Z</time>
      </trkpt>
      <trkpt lat="48.19437" lon="5.93477">
        <ele>359.3</ele>
        <time>2024-02-20T15:41:42Z</time>
      </trkpt>
      <trkpt lat="48.19453" lon="5.93492">
        <ele>359.3</ele>
        <time>2024-02-20T15:41:50Z</time>
      </trkpt>
      <trkpt lat="48.19466" lon="5.93497">
        <ele>359.2</ele>
        <time>2024-02-20T15:41:56Z</time>
      </trkpt>
      <trkpt lat="48.19484" lon="5.93489">
        <ele>359.2</ele>
        <time>2024-02-20T15:42:01Z</time>
      </trkpt>
      <trkpt lat="48.195" lon="5.93473">
        <ele>359.1</ele>
        <time>2024-02-20T15:42:05Z</time>
      </trkpt>
      <trkpt lat="48.19516" lon="5.93457">
        <ele>359.2</ele>
        <time>2024-02-20T15:42:09Z</time>
      </trkpt>
      <trkpt lat="48.19531" lon="5.93441">
        <ele>359.1</ele>
        <time>2024-02-20T15:42:13Z</time>
      </trkpt>
      <trkpt lat="48.19548" lon="5.93421">
        <ele>359</ele>
        <time>2024-02-20T15:42:18Z</time>
      </trkpt>
      <trkpt lat="48.19557" lon="5.93398">
        <ele>359</ele>
        <time>2024-02-20T15:42:22Z</time>
      </trkpt>
      <trkpt lat="48.19558" lon="5.93371">
        <ele>358.9</ele>
        <time>2024-02-20T15:42:26Z</time>
      </trkpt>
      <trkpt lat="48.1955" lon="5.93347">
        <ele>358.9</ele>
        <time>2024-02-20T15:42:30Z</time>
      </trkpt>
      <trkpt lat="48.19533" lon="5.93325">
        <ele>358.9</ele>
        <time>2024-02-20T15:42:35Z</time>
      </trkpt>
      <trkpt lat="48.1952" lon="5.93319">
        <ele>358.9</ele>
        <time>2024-02-20T15:42:38Z</time>
      </trkpt>
      <trkpt lat="48.19511" lon="5.93319">
        <ele>359</ele>
        <time>2024-02-20T15:42:40Z</time>
      </trkpt>
      <trkpt lat="48.19498" lon="5.93327">
        <ele>359</ele>
        <time>2024-02-20T15:42:43Z</time>
      </trkpt>
      <trkpt lat="48.19491" lon="5.93334">
        <ele>359</ele>
        <time>2024-02-20T15:42:45Z</time>
      </trkpt>
      <trkpt lat="48.19477" lon="5.93351">
        <ele>359.1</ele>
        <time>2024-02-20T15:42:49Z</time>
      </trkpt>
      <trkpt lat="48.1946" lon="5.93372">
        <ele>359.2</ele>
        <time>2024-02-20T15:42:54Z</time>
      </trkpt>
      <trkpt lat="48.19443" lon="5.93393">
        <ele>359.2</ele>
        <time>2024-02-20T15:42:59Z</time>
      </trkpt>
      <trkpt lat="48.19434" lon="5.93407">
        <ele>359.3</ele>
        <time>2024-02-20T15:43:02Z</time>
      </trkpt>
      <trkpt lat="48.1943" lon="5.93419">
        <ele>359.3</ele>
        <time>2024-02-20T15:43:04Z</time>
      </trkpt>
      <trkpt lat="48.19427" lon="5.93439">
        <ele>359.3</ele>
        <time>2024-02-20T15:43:07Z</time>
      </trkpt>
      <trkpt lat="48.19429" lon="5.93452">
        <ele>359.3</ele>
        <time>2024-02-20T15:43:09Z</time>
      </trkpt>
      <trkpt lat="48.19437" lon="5.93476">
        <ele>359.3</ele>
        <time>2024-02-20T15:43:13Z</time>
      </trkpt>
      <trkpt lat="48.19443" lon="5.93485">
        <ele>359.3</ele>
        <time>2024-02-20T15:43:15Z</time>
      </trkpt>
      <trkpt lat="48.19455" lon="5.93496">
        <ele>359.3</ele>
        <time>2024-02-20T15:43:18Z</time>
      </trkpt>
      <trkpt lat="48.19463" lon="5.93499">
        <ele>359.2</ele>
        <time>2024-02-20T15:43:20Z</time>
      </trkpt>
      <trkpt lat="48.19472" lon="5.93499">
        <ele>359.2</ele>
        <time>2024-02-20T15:43:22Z</time>
      </trkpt>
      <trkpt lat="48.19481" lon="5.93495">
        <ele>359.2</ele>
        <time>2024-02-20T15:43:24Z</time>
      </trkpt>
      <trkpt lat="48.19496" lon="5.9348">
        <ele>359.1</ele>
        <time>2024-02-20T15:43:28Z</time>
      </trkpt>
      <trkpt lat="48.19513" lon="5.93458">
        <ele>359.2</ele>
        <time>2024-02-20T15:43:33Z</time>
      </trkpt>
      <trkpt lat="48.19529" lon="5.93438">
        <ele>359.1</ele>
        <time>2024-02-20T15:43:38Z</time>
      </trkpt>
      <trkpt lat="48.19546" lon="5.93417">
        <ele>359</ele>
        <time>2024-02-20T15:43:43Z</time>
      </trkpt>
      <trkpt lat="48.19553" lon="5.93407">
        <ele>359</ele>
        <time>2024-02-20T15:43:44Z</time>
      </trkpt>
      <trkpt lat="48.19555" lon="5.93401">
        <ele>359</ele>
        <time>2024-02-20T15:43:46Z</time>
      </trkpt>
      <trkpt lat="48.19558" lon="5.93388">
        <ele>359</ele>
        <time>2024-02-20T15:43:48Z</time>
      </trkpt>
      <trkpt lat="48.19558" lon="5.93374">
        <ele>358.9</ele>
        <time>2024-02-20T15:43:50Z</time>
      </trkpt>
      <trkpt lat="48.19553" lon="5.93355">
        <ele>358.9</ele>
        <time>2024-02-20T15:43:53Z</time>
      </trkpt>
      <trkpt lat="48.19548" lon="5.93343">
        <ele>358.9</ele>
        <time>2024-02-20T15:43:55Z</time>
      </trkpt>
      <trkpt lat="48.19539" lon="5.9333">
        <ele>358.9</ele>
        <time>2024-02-20T15:43:58Z</time>
      </trkpt>
      <trkpt lat="48.19531" lon="5.93324">
        <ele>358.9</ele>
        <time>2024-02-20T15:44:00Z</time>
      </trkpt>
      <trkpt lat="48.19512" lon="5.93322">
        <ele>359</ele>
        <time>2024-02-20T15:44:04Z</time>
      </trkpt>
      <trkpt lat="48.19499" lon="5.9333">
        <ele>359</ele>
        <time>2024-02-20T15:44:07Z</time>
      </trkpt>
      <trkpt lat="48.19483" lon="5.93347">
        <ele>359.1</ele>
        <time>2024-02-20T15:44:11Z</time>
      </trkpt>
      <trkpt lat="48.19476" lon="5.93355">
        <ele>359.1</ele>
        <time>2024-02-20T15:44:13Z</time>
      </trkpt>
      <trkpt lat="48.19458" lon="5.93376">
        <ele>359.2</ele>
        <time>2024-02-20T15:44:18Z</time>
      </trkpt>
      <trkpt lat="48.19441" lon="5.93396">
        <ele>359.2</ele>
        <time>2024-02-20T15:44:23Z</time>
      </trkpt>
      <trkpt lat="48.19435" lon="5.93404">
        <ele>359.3</ele>
        <time>2024-02-20T15:44:24Z</time>
      </trkpt>
      <trkpt lat="48.19432" lon="5.93409">
        <ele>359.3</ele>
        <time>2024-02-20T15:44:26Z</time>
      </trkpt>
      <trkpt lat="48.19428" lon="5.9342">
        <ele>359.3</ele>
        <time>2024-02-20T15:44:28Z</time>
      </trkpt>
      <trkpt lat="48.19427" lon="5.93432">
        <ele>359.3</ele>
        <time>2024-02-20T15:44:30Z</time>
      </trkpt>
      <trkpt lat="48.19428" lon="5.93445">
        <ele>359.3</ele>
        <time>2024-02-20T15:44:32Z</time>
      </trkpt>
      <trkpt lat="48.19433" lon="5.93465">
        <ele>359.3</ele>
        <time>2024-02-20T15:44:35Z</time>
      </trkpt>
      <trkpt lat="48.19438" lon="5.93476">
        <ele>359.3</ele>
        <time>2024-02-20T15:44:37Z</time>
      </trkpt>
      <trkpt lat="48.19452" lon="5.93493">
        <ele>359.3</ele>
        <time>2024-02-20T15:44:41Z</time>
      </trkpt>
      <trkpt lat="48.1946" lon="5.93499">
        <ele>359.3</ele>
        <time>2024-02-20T15:44:43Z</time>
      </trkpt>
      <trkpt lat="48.19469" lon="5.93501">
        <ele>359.2</ele>
        <time>2024-02-20T15:44:45Z</time>
      </trkpt>
      <trkpt lat="48.19482" lon="5.93495">
        <ele>359.2</ele>
        <time>2024-02-20T15:44:48Z</time>
      </trkpt>
      <trkpt lat="48.19497" lon="5.93479">
        <ele>359.1</ele>
        <time>2024-02-20T15:44:52Z</time>
      </trkpt>
      <trkpt lat="48.19514" lon="5.93459">
        <ele>359.2</ele>
        <time>2024-02-20T15:44:57Z</time>
      </trkpt>
      <trkpt lat="48.19531" lon="5.93438">
        <ele>359.1</ele>
        <time>2024-02-20T15:45:02Z</time>
      </trkpt>
      <trkpt lat="48.19548" lon="5.93417">
        <ele>359</ele>
        <time>2024-02-20T15:45:07Z</time>
      </trkpt>
      <trkpt lat="48.19553" lon="5.93405">
        <ele>359</ele>
        <time>2024-02-20T15:45:08Z</time>
      </trkpt>
      <trkpt lat="48.19555" lon="5.93399">
        <ele>359</ele>
        <time>2024-02-20T15:45:10Z</time>
      </trkpt>
      <trkpt lat="48.19557" lon="5.93379">
        <ele>358.9</ele>
        <time>2024-02-20T15:45:13Z</time>
      </trkpt>
      <trkpt lat="48.19556" lon="5.93367">
        <ele>358.9</ele>
        <time>2024-02-20T15:45:15Z</time>
      </trkpt>
      <trkpt lat="48.19551" lon="5.93354">
        <ele>358.9</ele>
        <time>2024-02-20T15:45:17Z</time>
      </trkpt>
      <trkpt lat="48.19543" lon="5.93338">
        <ele>358.9</ele>
        <time>2024-02-20T15:45:20Z</time>
      </trkpt>
      <trkpt lat="48.19528" lon="5.93325">
        <ele>358.9</ele>
        <time>2024-02-20T15:45:24Z</time>
      </trkpt>
      <trkpt lat="48.19514" lon="5.93321">
        <ele>358.9</ele>
        <time>2024-02-20T15:45:27Z</time>
      </trkpt>
      <trkpt lat="48.19505" lon="5.93324">
        <ele>359</ele>
        <time>2024-02-20T15:45:29Z</time>
      </trkpt>
      <trkpt lat="48.19493" lon="5.93335">
        <ele>359</ele>
        <time>2024-02-20T15:45:32Z</time>
      </trkpt>
      <trkpt lat="48.19479" lon="5.93352">
        <ele>359.1</ele>
        <time>2024-02-20T15:45:36Z</time>
      </trkpt>
      <trkpt lat="48.19464" lon="5.93368">
        <ele>359.2</ele>
        <time>2024-02-20T15:45:40Z</time>
      </trkpt>
      <trkpt lat="48.19447" lon="5.93388">
        <ele>359.2</ele>
        <time>2024-02-20T15:45:45Z</time>
      </trkpt>
      <trkpt lat="48.19435" lon="5.93406">
        <ele>359.3</ele>
        <time>2024-02-20T15:45:49Z</time>
      </trkpt>
      <trkpt lat="48.19431" lon="5.93417">
        <ele>359.3</ele>
        <time>2024-02-20T15:45:51Z</time>
      </trkpt>
      <trkpt lat="48.19429" lon="5.9343">
        <ele>359.3</ele>
        <time>2024-02-20T15:45:53Z</time>
      </trkpt>
      <trkpt lat="48.19428" lon="5.93443">
        <ele>359.3</ele>
        <time>2024-02-20T15:45:55Z</time>
      </trkpt>
      <trkpt lat="48.19431" lon="5.93457">
        <ele>359.3</ele>
        <time>2024-02-20T15:45:57Z</time>
      </trkpt>
      <trkpt lat="48.19441" lon="5.93479">
        <ele>359.3</ele>
        <time>2024-02-20T15:46:01Z</time>
      </trkpt>
      <trkpt lat="48.19449" lon="5.93489">
        <ele>359.3</ele>
        <time>2024-02-20T15:46:03Z</time>
      </trkpt>
      <trkpt lat="48.1946" lon="5.93498">
        <ele>359.3</ele>
        <time>2024-02-20T15:46:06Z</time>
      </trkpt>
      <trkpt lat="48.19469" lon="5.935">
        <ele>359.2</ele>
        <time>2024-02-20T15:46:08Z</time>
      </trkpt>
      <trkpt lat="48.19482" lon="5.93496">
        <ele>359.2</ele>
        <time>2024-02-20T15:46:11Z</time>
      </trkpt>
      <trkpt lat="48.19497" lon="5.93479">
        <ele>359.1</ele>
        <time>2024-02-20T15:46:15Z</time>
      </trkpt>
      <trkpt lat="48.19512" lon="5.93462">
        <ele>359.2</ele>
        <time>2024-02-20T15:46:19Z</time>
      </trkpt>
      <trkpt lat="48.19527" lon="5.93444">
        <ele>359.1</ele>
        <time>2024-02-20T15:46:23Z</time>
      </trkpt>
      <trkpt lat="48.19542" lon="5.93427">
        <ele>359.1</ele>
        <time>2024-02-20T15:46:27Z</time>
      </trkpt>
      <trkpt lat="48.19552" lon="5.93412">
        <ele>359</ele>
        <time>2024-02-20T15:46:30Z</time>
      </trkpt>
      <trkpt lat="48.19558" lon="5.93392">
        <ele>359</ele>
        <time>2024-02-20T15:46:33Z</time>
      </trkpt>
      <trkpt lat="48.19559" lon="5.93378">
        <ele>358.9</ele>
        <time>2024-02-20T15:46:35Z</time>
      </trkpt>
      <trkpt lat="48.19557" lon="5.93362">
        <ele>358.9</ele>
        <time>2024-02-20T15:46:37Z</time>
      </trkpt>
      <trkpt lat="48.19552" lon="5.93348">
        <ele>358.9</ele>
        <time>2024-02-20T15:46:39Z</time>
      </trkpt>
      <trkpt lat="48.19546" lon="5.93337">
        <ele>358.9</ele>
        <time>2024-02-20T15:46:41Z</time>
      </trkpt>
      <trkpt lat="48.19534" lon="5.93324">
        <ele>358.9</ele>
        <time>2024-02-20T15:46:44Z</time>
      </trkpt>
      <trkpt lat="48.19525" lon="5.9332">
        <ele>358.9</ele>
        <time>2024-02-20T15:46:46Z</time>
      </trkpt>
      <trkpt lat="48.19511" lon="5.9332">
        <ele>359</ele>
        <time>2024-02-20T15:46:49Z</time>
      </trkpt>
      <trkpt lat="48.19492" lon="5.93334">
        <ele>359</ele>
        <time>2024-02-20T15:46:53Z</time>
      </trkpt>
      <trkpt lat="48.19475" lon="5.93352">
        <ele>359.1</ele>
        <time>2024-02-20T15:46:57Z</time>
      </trkpt>
      <trkpt lat="48.19459" lon="5.93372">
        <ele>359.2</ele>
        <time>2024-02-20T15:47:01Z</time>
      </trkpt>
      <trkpt lat="48.19443" lon="5.93392">
        <ele>359.2</ele>
        <time>2024-02-20T15:47:05Z</time>
      </trkpt>
      <trkpt lat="48.19438" lon="5.93396">
        <ele>359.2</ele>
        <time>2024-02-20T15:47:06Z</time>
      </trkpt>
      <trkpt lat="48.19423" lon="5.93416">
        <ele>359.3</ele>
        <time>2024-02-20T15:47:11Z</time>
      </trkpt>
      <trkpt lat="48.19421" lon="5.93422">
        <ele>359.3</ele>
        <time>2024-02-20T15:47:13Z</time>
      </trkpt>
      <trkpt lat="48.19428" lon="5.93417">
        <ele>359.3</ele>
        <time>2024-02-20T15:47:17Z</time>
      </trkpt>
      <trkpt lat="48.19434" lon="5.93407">
        <ele>359.3</ele>
        <time>2024-02-20T15:47:22Z</time>
      </trkpt>
      <trkpt lat="48.19443" lon="5.9339">
        <ele>359.2</ele>
        <time>2024-02-20T15:47:33Z</time>
      </trkpt>
      <trkpt lat="48.19447" lon="5.93388">
        <ele>359.2</ele>
        <time>2024-02-20T15:47:39Z</time>
      </trkpt>
      <trkpt lat="48.19448" lon="5.93386">
        <ele>359.2</ele>
        <time>2024-02-20T15:47:42Z</time>
      </trkpt>
      <trkpt lat="48.19463" lon="5.9337">
        <ele>359.2</ele>
        <time>2024-02-20T15:48:01Z</time>
      </trkpt>
      <trkpt lat="48.19473" lon="5.93359">
        <ele>359.2</ele>
        <time>2024-02-20T15:48:15Z</time>
      </trkpt>
      <trkpt lat="48.19485" lon="5.93347">
        <ele>359.1</ele>
        <time>2024-02-20T15:48:32Z</time>
      </trkpt>
      <trkpt lat="48.19497" lon="5.93329">
        <ele>359</ele>
        <time>2024-02-20T15:48:49Z</time>
      </trkpt>
      <trkpt lat="48.19515" lon="5.93319">
        <ele>359</ele>
        <time>2024-02-20T15:49:07Z</time>
      </trkpt>
      <trkpt lat="48.19517" lon="5.93322">
        <ele>359</ele>
        <time>2024-02-20T15:49:14Z</time>
      </trkpt>
      <trkpt lat="48.19517" lon="5.93322">
        <ele>359</ele>
        <time>2024-02-20T15:49:16Z</time>
      </trkpt>
      <trkpt lat="48.19516" lon="5.93323">
        <ele>359</ele>
        <time>2024-02-20T15:49:17Z</time>
      </trkpt>
      <trkpt lat="48.19495" lon="5.93339">
        <ele>359</ele>
        <time>2024-02-20T15:49:22Z</time>
      </trkpt>
      <trkpt lat="48.1948" lon="5.93357">
        <ele>359.1</ele>
        <time>2024-02-20T15:49:25Z</time>
      </trkpt>
      <trkpt lat="48.19462" lon="5.93379">
        <ele>359.2</ele>
        <time>2024-02-20T15:49:29Z</time>
      </trkpt>
      <trkpt lat="48.19444" lon="5.93399">
        <ele>359.2</ele>
        <time>2024-02-20T15:49:33Z</time>
      </trkpt>
      <trkpt lat="48.19436" lon="5.93411">
        <ele>359.3</ele>
        <time>2024-02-20T15:49:35Z</time>
      </trkpt>
      <trkpt lat="48.19431" lon="5.93425">
        <ele>359.3</ele>
        <time>2024-02-20T15:49:37Z</time>
      </trkpt>
      <trkpt lat="48.19428" lon="5.93441">
        <ele>359.3</ele>
        <time>2024-02-20T15:49:39Z</time>
      </trkpt>
      <trkpt lat="48.1943" lon="5.93457">
        <ele>359.3</ele>
        <time>2024-02-20T15:49:41Z</time>
      </trkpt>
      <trkpt lat="48.19435" lon="5.9347">
        <ele>359.3</ele>
        <time>2024-02-20T15:49:43Z</time>
      </trkpt>
      <trkpt lat="48.19442" lon="5.93482">
        <ele>359.3</ele>
        <time>2024-02-20T15:49:45Z</time>
      </trkpt>
      <trkpt lat="48.19451" lon="5.93491">
        <ele>359.3</ele>
        <time>2024-02-20T15:49:47Z</time>
      </trkpt>
      <trkpt lat="48.19462" lon="5.93496">
        <ele>359.3</ele>
        <time>2024-02-20T15:49:49Z</time>
      </trkpt>
      <trkpt lat="48.19478" lon="5.93495">
        <ele>359.2</ele>
        <time>2024-02-20T15:49:52Z</time>
      </trkpt>
      <trkpt lat="48.19488" lon="5.93487">
        <ele>359.2</ele>
        <time>2024-02-20T15:49:54Z</time>
      </trkpt>
      <trkpt lat="48.19506" lon="5.93466">
        <ele>359.1</ele>
        <time>2024-02-20T15:49:58Z</time>
      </trkpt>
      <trkpt lat="48.19524" lon="5.93444">
        <ele>359.1</ele>
        <time>2024-02-20T15:50:02Z</time>
      </trkpt>
      <trkpt lat="48.19542" lon="5.93421">
        <ele>359</ele>
        <time>2024-02-20T15:50:06Z</time>
      </trkpt>
      <trkpt lat="48.19554" lon="5.93403">
        <ele>359</ele>
        <time>2024-02-20T15:50:09Z</time>
      </trkpt>
      <trkpt lat="48.19559" lon="5.93389">
        <ele>359</ele>
        <time>2024-02-20T15:50:11Z</time>
      </trkpt>
      <trkpt lat="48.19559" lon="5.93374">
        <ele>358.9</ele>
        <time>2024-02-20T15:50:13Z</time>
      </trkpt>
      <trkpt lat="48.19556" lon="5.93358">
        <ele>358.9</ele>
        <time>2024-02-20T15:50:15Z</time>
      </trkpt>
      <trkpt lat="48.19545" lon="5.93339">
        <ele>358.9</ele>
        <time>2024-02-20T15:50:18Z</time>
      </trkpt>
      <trkpt lat="48.19535" lon="5.9333">
        <ele>358.9</ele>
        <time>2024-02-20T15:50:20Z</time>
      </trkpt>
      <trkpt lat="48.19519" lon="5.93323">
        <ele>358.9</ele>
        <time>2024-02-20T15:50:23Z</time>
      </trkpt>
      <trkpt lat="48.19509" lon="5.93325">
        <ele>359</ele>
        <time>2024-02-20T15:50:25Z</time>
      </trkpt>
      <trkpt lat="48.19499" lon="5.93333">
        <ele>359</ele>
        <time>2024-02-20T15:50:27Z</time>
      </trkpt>
      <trkpt lat="48.19482" lon="5.93354">
        <ele>359.1</ele>
        <time>2024-02-20T15:50:31Z</time>
      </trkpt>
      <trkpt lat="48.19464" lon="5.93376">
        <ele>359.2</ele>
        <time>2024-02-20T15:50:35Z</time>
      </trkpt>
      <trkpt lat="48.19445" lon="5.93398">
        <ele>359.2</ele>
        <time>2024-02-20T15:50:39Z</time>
      </trkpt>
      <trkpt lat="48.1943" lon="5.93417">
        <ele>359.3</ele>
        <time>2024-02-20T15:50:43Z</time>
      </trkpt>
      <trkpt lat="48.19422" lon="5.93427">
        <ele>359.3</ele>
        <time>2024-02-20T15:50:46Z</time>
      </trkpt>
      <trkpt lat="48.19419" lon="5.93426">
        <ele>359.3</ele>
        <time>2024-02-20T15:50:48Z</time>
      </trkpt>
      <trkpt lat="48.1942" lon="5.93417">
        <ele>359.3</ele>
        <time>2024-02-20T15:50:51Z</time>
      </trkpt>
      <trkpt lat="48.19435" lon="5.93404">
        <ele>359.3</ele>
        <time>2024-02-20T15:51:03Z</time>
      </trkpt>
      <trkpt lat="48.19439" lon="5.93398">
        <ele>359.2</ele>
        <time>2024-02-20T15:51:10Z</time>
      </trkpt>
      <trkpt lat="48.19438" lon="5.93399">
        <ele>359.2</ele>
        <time>2024-02-20T15:51:12Z</time>
      </trkpt>
      <trkpt lat="48.19438" lon="5.93397">
        <ele>359.2</ele>
        <time>2024-02-20T15:51:14Z</time>
      </trkpt>
      <trkpt lat="48.19454" lon="5.93381">
        <ele>359.2</ele>
        <time>2024-02-20T15:51:31Z</time>
      </trkpt>
      <trkpt lat="48.19465" lon="5.93371">
        <ele>359.2</ele>
        <time>2024-02-20T15:51:47Z</time>
      </trkpt>
      <trkpt lat="48.19464" lon="5.93373">
        <ele>359.2</ele>
        <time>2024-02-20T15:51:55Z</time>
      </trkpt>
      <trkpt lat="48.19448" lon="5.93381">
        <ele>359.2</ele>
        <time>2024-02-20T15:53:39Z</time>
      </trkpt>
      <trkpt lat="48.19432" lon="5.93391">
        <ele>359.3</ele>
        <time>2024-02-20T15:54:00Z</time>
      </trkpt>
      <trkpt lat="48.19429" lon="5.93394">
        <ele>359.7</ele>
        <time>2024-02-20T15:54:04Z</time>
      </trkpt>
      <trkpt lat="48.19413" lon="5.93409">
        <ele>362</ele>
        <time>2024-02-20T15:54:22Z</time>
      </trkpt>
      <trkpt lat="48.19411" lon="5.9341">
        <ele>362.6</ele>
        <time>2024-02-20T15:54:26Z</time>
      </trkpt>
      <trkpt lat="48.1941" lon="5.93411">
        <ele>362.8</ele>
        <time>2024-02-20T15:54:28Z</time>
      </trkpt>
      <trkpt lat="48.19409" lon="5.93412">
        <ele>363.4</ele>
        <time>2024-02-20T15:54:30Z</time>
      </trkpt>
      <trkpt lat="48.19408" lon="5.93413">
        <ele>363.6</ele>
        <time>2024-02-20T15:54:32Z</time>
      </trkpt>
      <trkpt lat="48.19391" lon="5.93415">
        <ele>366.1</ele>
        <time>2024-02-20T15:55:03Z</time>
      </trkpt>
      <trkpt lat="48.19376" lon="5.93431">
        <ele>368.7</ele>
        <time>2024-02-20T15:55:17Z</time>
      </trkpt>
      <trkpt lat="48.19359" lon="5.93446">
        <ele>370.2</ele>
        <time>2024-02-20T15:55:28Z</time>
      </trkpt>
      <trkpt lat="48.19344" lon="5.9346">
        <ele>371.9</ele>
        <time>2024-02-20T15:55:39Z</time>
      </trkpt>
      <trkpt lat="48.19327" lon="5.93474">
        <ele>373.9</ele>
        <time>2024-02-20T15:55:52Z</time>
      </trkpt>
      <trkpt lat="48.19311" lon="5.93489">
        <ele>375.6</ele>
        <time>2024-02-20T15:56:04Z</time>
      </trkpt>
      <trkpt lat="48.19299" lon="5.9351">
        <ele>377</ele>
        <time>2024-02-20T15:56:14Z</time>
      </trkpt>
      <trkpt lat="48.19291" lon="5.93533">
        <ele>377.6</ele>
        <time>2024-02-20T15:56:24Z</time>
      </trkpt>
      <trkpt lat="48.19301" lon="5.93557">
        <ele>376.9</ele>
        <time>2024-02-20T15:56:33Z</time>
      </trkpt>
      <trkpt lat="48.1931" lon="5.93583">
        <ele>376.5</ele>
        <time>2024-02-20T15:56:43Z</time>
      </trkpt>
      <trkpt lat="48.19322" lon="5.93605">
        <ele>376.2</ele>
        <time>2024-02-20T15:56:52Z</time>
      </trkpt>
      <trkpt lat="48.19332" lon="5.93627">
        <ele>375.7</ele>
        <time>2024-02-20T15:57:01Z</time>
      </trkpt>
      <trkpt lat="48.19341" lon="5.93652">
        <ele>375</ele>
        <time>2024-02-20T15:57:11Z</time>
      </trkpt>
      <trkpt lat="48.19352" lon="5.93675">
        <ele>374.3</ele>
        <time>2024-02-20T15:57:20Z</time>
      </trkpt>
      <trkpt lat="48.19364" lon="5.93697">
        <ele>373.5</ele>
        <time>2024-02-20T15:57:29Z</time>
      </trkpt>
      <trkpt lat="48.19376" lon="5.93719">
        <ele>372.7</ele>
        <time>2024-02-20T15:57:38Z</time>
      </trkpt>
      <trkpt lat="48.19388" lon="5.9374">
        <ele>372</ele>
        <time>2024-02-20T15:57:47Z</time>
      </trkpt>
      <trkpt lat="48.19401" lon="5.93761">
        <ele>371.3</ele>
        <time>2024-02-20T15:57:55Z</time>
      </trkpt>
      <trkpt lat="48.19414" lon="5.9378">
        <ele>370.6</ele>
        <time>2024-02-20T15:58:03Z</time>
      </trkpt>
      <trkpt lat="48.19427" lon="5.93802">
        <ele>369.7</ele>
        <time>2024-02-20T15:58:11Z</time>
      </trkpt>
      <trkpt lat="48.19438" lon="5.93824">
        <ele>368.9</ele>
        <time>2024-02-20T15:58:19Z</time>
      </trkpt>
      <trkpt lat="48.1945" lon="5.93847">
        <ele>368.2</ele>
        <time>2024-02-20T15:58:28Z</time>
      </trkpt>
      <trkpt lat="48.19463" lon="5.93869">
        <ele>367.4</ele>
        <time>2024-02-20T15:58:37Z</time>
      </trkpt>
      <trkpt lat="48.19477" lon="5.9389">
        <ele>366.9</ele>
        <time>2024-02-20T15:58:46Z</time>
      </trkpt>
      <trkpt lat="48.1949" lon="5.93911">
        <ele>366.3</ele>
        <time>2024-02-20T15:58:55Z</time>
      </trkpt>
      <trkpt lat="48.19503" lon="5.9393">
        <ele>365.7</ele>
        <time>2024-02-20T15:59:03Z</time>
      </trkpt>
      <trkpt lat="48.19516" lon="5.93949">
        <ele>365.1</ele>
        <time>2024-02-20T15:59:11Z</time>
      </trkpt>
      <trkpt lat="48.19527" lon="5.93971">
        <ele>364.7</ele>
        <time>2024-02-20T15:59:19Z</time>
      </trkpt>
      <trkpt lat="48.19537" lon="5.93994">
        <ele>364.2</ele>
        <time>2024-02-20T15:59:27Z</time>
      </trkpt>
      <trkpt lat="48.1955" lon="5.94018">
        <ele>363.9</ele>
        <time>2024-02-20T15:59:36Z</time>
      </trkpt>
      <trkpt lat="48.19561" lon="5.94041">
        <ele>363.5</ele>
        <time>2024-02-20T15:59:45Z</time>
      </trkpt>
      <trkpt lat="48.19574" lon="5.94061">
        <ele>363.1</ele>
        <time>2024-02-20T15:59:55Z</time>
      </trkpt>
      <trkpt lat="48.19585" lon="5.94085">
        <ele>362</ele>
        <time>2024-02-20T16:00:05Z</time>
      </trkpt>
      <trkpt lat="48.19596" lon="5.9411">
        <ele>361.7</ele>
        <time>2024-02-20T16:00:14Z</time>
      </trkpt>
      <trkpt lat="48.19607" lon="5.94134">
        <ele>361.3</ele>
        <time>2024-02-20T16:00:22Z</time>
      </trkpt>
      <trkpt lat="48.1961" lon="5.94162">
        <ele>360.6</ele>
        <time>2024-02-20T16:00:30Z</time>
      </trkpt>
      <trkpt lat="48.19612" lon="5.9419">
        <ele>360</ele>
        <time>2024-02-20T16:00:39Z</time>
      </trkpt>
      <trkpt lat="48.19613" lon="5.94197">
        <ele>359.9</ele>
        <time>2024-02-20T16:00:41Z</time>
      </trkpt>
      <trkpt lat="48.19616" lon="5.94225">
        <ele>359.5</ele>
        <time>2024-02-20T16:00:50Z</time>
      </trkpt>
      <trkpt lat="48.1962" lon="5.94255">
        <ele>359.1</ele>
        <time>2024-02-20T16:00:58Z</time>
      </trkpt>
      <trkpt lat="48.19623" lon="5.94281">
        <ele>358.8</ele>
        <time>2024-02-20T16:01:06Z</time>
      </trkpt>
      <trkpt lat="48.1963" lon="5.94308">
        <ele>358.6</ele>
        <time>2024-02-20T16:01:14Z</time>
      </trkpt>
      <trkpt lat="48.19636" lon="5.94336">
        <ele>358.6</ele>
        <time>2024-02-20T16:01:22Z</time>
      </trkpt>
      <trkpt lat="48.19642" lon="5.94364">
        <ele>358.4</ele>
        <time>2024-02-20T16:01:31Z</time>
      </trkpt>
      <trkpt lat="48.19657" lon="5.94379">
        <ele>358.3</ele>
        <time>2024-02-20T16:01:40Z</time>
      </trkpt>
      <trkpt lat="48.19674" lon="5.94387">
        <ele>358.9</ele>
        <time>2024-02-20T16:01:48Z</time>
      </trkpt>
      <trkpt lat="48.19694" lon="5.94395">
        <ele>359.9</ele>
        <time>2024-02-20T16:01:57Z</time>
      </trkpt>
      <trkpt lat="48.19712" lon="5.94401">
        <ele>360.3</ele>
        <time>2024-02-20T16:02:06Z</time>
      </trkpt>
      <trkpt lat="48.19731" lon="5.94406">
        <ele>360.3</ele>
        <time>2024-02-20T16:02:15Z</time>
      </trkpt>
      <trkpt lat="48.1975" lon="5.94404">
        <ele>360</ele>
        <time>2024-02-20T16:02:24Z</time>
      </trkpt>
      <trkpt lat="48.19769" lon="5.944">
        <ele>359.4</ele>
        <time>2024-02-20T16:02:32Z</time>
      </trkpt>
      <trkpt lat="48.19789" lon="5.94396">
        <ele>358.6</ele>
        <time>2024-02-20T16:02:42Z</time>
      </trkpt>
      <trkpt lat="48.19807" lon="5.94403">
        <ele>358</ele>
        <time>2024-02-20T16:02:51Z</time>
      </trkpt>
      <trkpt lat="48.19825" lon="5.94411">
        <ele>357.3</ele>
        <time>2024-02-20T16:03:00Z</time>
      </trkpt>
      <trkpt lat="48.19842" lon="5.94425">
        <ele>356.5</ele>
        <time>2024-02-20T16:03:08Z</time>
      </trkpt>
      <trkpt lat="48.19859" lon="5.94438">
        <ele>355.6</ele>
        <time>2024-02-20T16:03:14Z</time>
      </trkpt>
      <trkpt lat="48.19875" lon="5.94453">
        <ele>354.6</ele>
        <time>2024-02-20T16:03:22Z</time>
      </trkpt>
      <trkpt lat="48.19889" lon="5.94471">
        <ele>353.4</ele>
        <time>2024-02-20T16:03:30Z</time>
      </trkpt>
      <trkpt lat="48.19901" lon="5.94479">
        <ele>352.3</ele>
        <time>2024-02-20T16:03:37Z</time>
      </trkpt>
      <trkpt lat="48.19918" lon="5.94467">
        <ele>351.3</ele>
        <time>2024-02-20T16:03:45Z</time>
      </trkpt>
      <trkpt lat="48.19936" lon="5.94456">
        <ele>350.4</ele>
        <time>2024-02-20T16:03:53Z</time>
      </trkpt>
      <trkpt lat="48.19952" lon="5.94443">
        <ele>349.7</ele>
        <time>2024-02-20T16:04:01Z</time>
      </trkpt>
      <trkpt lat="48.19969" lon="5.94431">
        <ele>348.9</ele>
        <time>2024-02-20T16:04:10Z</time>
      </trkpt>
      <trkpt lat="48.19986" lon="5.94416">
        <ele>348.3</ele>
        <time>2024-02-20T16:04:18Z</time>
      </trkpt>
      <trkpt lat="48.19991" lon="5.94418">
        <ele>348.2</ele>
        <time>2024-02-20T16:04:20Z</time>
      </trkpt>
      <trkpt lat="48.19993" lon="5.94427">
        <ele>348.1</ele>
        <time>2024-02-20T16:04:26Z</time>
      </trkpt>
      <trkpt lat="48.19995" lon="5.94425">
        <ele>347.9</ele>
        <time>2024-02-20T16:04:30Z</time>
      </trkpt>
      <trkpt lat="48.2001" lon="5.9441">
        <ele>347.3</ele>
        <time>2024-02-20T16:04:38Z</time>
      </trkpt>
      <trkpt lat="48.20028" lon="5.94414">
        <ele>346.6</ele>
        <time>2024-02-20T16:04:48Z</time>
      </trkpt>
      <trkpt lat="48.20048" lon="5.94417">
        <ele>346.1</ele>
        <time>2024-02-20T16:04:55Z</time>
      </trkpt>
      <trkpt lat="48.20067" lon="5.94416">
        <ele>345.7</ele>
        <time>2024-02-20T16:05:01Z</time>
      </trkpt>
      <trkpt lat="48.20084" lon="5.94414">
        <ele>345.2</ele>
        <time>2024-02-20T16:05:13Z</time>
      </trkpt>
      <trkpt lat="48.201" lon="5.94412">
        <ele>344.8</ele>
        <time>2024-02-20T16:05:26Z</time>
      </trkpt>
      <trkpt lat="48.20102" lon="5.94413">
        <ele>344.7</ele>
        <time>2024-02-20T16:05:27Z</time>
      </trkpt>
      <trkpt lat="48.20122" lon="5.94418">
        <ele>344.1</ele>
        <time>2024-02-20T16:05:34Z</time>
      </trkpt>
      <trkpt lat="48.20138" lon="5.9442">
        <ele>343.5</ele>
        <time>2024-02-20T16:05:39Z</time>
      </trkpt>
    </trkseg>
  </trk>
</gpx>